<?xml version="1.0" encoding="UTF-8" standalone="no" ?>
<gpx xmlns="http://www.topografix.com/GPX/1/1" creator="" version="1.1" xmlns:xsi="http://www.w3.org/2001/XMLSchema-instance" xsi:schemaLocation="http://www.topografix.com/GPX/1/1 http://www.topografix.com/GPX/1/1/gpx.xsd">
 <trk>
  <name>ACTIVE LOG091910</name>
  <trkseg>
   <trkpt lat="51.400742" lon="-2.843424">
    <ele>15.331</ele>
    <time>2012-11-11T09:19:10Z</time>
   </trkpt>
  </trkseg>
 </trk>
 <trk>
  <name>ACTIVE LOG091934</name>
  <trkseg>
   <trkpt lat="51.413840" lon="-2.828281">
    <ele>15.331</ele>
    <time>2012-11-11T09:19:34Z</time>
   </trkpt>
   <trkpt lat="51.412859" lon="-2.828244">
    <ele>15.521</ele>
    <time>2012-11-11T09:19:48Z</time>
   </trkpt>
   <trkpt lat="51.411945" lon="-2.828258">
    <ele>15.986</ele>
    <time>2012-11-11T09:20:01Z</time>
   </trkpt>
   <trkpt lat="51.410980" lon="-2.828156">
    <ele>15.545</ele>
    <time>2012-11-11T09:20:14Z</time>
   </trkpt>
   <trkpt lat="51.410217" lon="-2.828297">
    <ele>15.197</ele>
    <time>2012-11-11T09:20:27Z</time>
   </trkpt>
   <trkpt lat="51.409291" lon="-2.828275">
    <ele>14.668</ele>
    <time>2012-11-11T09:20:40Z</time>
   </trkpt>
   <trkpt lat="51.408346" lon="-2.828242">
    <ele>14.753</ele>
    <time>2012-11-11T09:20:53Z</time>
   </trkpt>
   <trkpt lat="51.407449" lon="-2.828210">
    <ele>14.419</ele>
    <time>2012-11-11T09:21:06Z</time>
   </trkpt>
   <trkpt lat="51.406537" lon="-2.828161">
    <ele>14.140</ele>
    <time>2012-11-11T09:21:19Z</time>
   </trkpt>
   <trkpt lat="51.405634" lon="-2.828128">
    <ele>14.230</ele>
    <time>2012-11-11T09:21:32Z</time>
   </trkpt>
   <trkpt lat="51.404728" lon="-2.828094">
    <ele>14.336</ele>
    <time>2012-11-11T09:21:45Z</time>
   </trkpt>
   <trkpt lat="51.403767" lon="-2.828054">
    <ele>14.448</ele>
    <time>2012-11-11T09:21:59Z</time>
   </trkpt>
   <trkpt lat="51.402818" lon="-2.827985">
    <ele>13.848</ele>
    <time>2012-11-11T09:22:13Z</time>
   </trkpt>
   <trkpt lat="51.401975" lon="-2.827364">
    <ele>13.761</ele>
    <time>2012-11-11T09:22:26Z</time>
   </trkpt>
   <trkpt lat="51.401124" lon="-2.826737">
    <ele>14.304</ele>
    <time>2012-11-11T09:22:40Z</time>
   </trkpt>
   <trkpt lat="51.400270" lon="-2.826102">
    <ele>12.441</ele>
    <time>2012-11-11T09:22:53Z</time>
   </trkpt>
   <trkpt lat="51.399370" lon="-2.825805">
    <ele>12.607</ele>
    <time>2012-11-11T09:23:06Z</time>
   </trkpt>
   <trkpt lat="51.398430" lon="-2.825534">
    <ele>11.929</ele>
    <time>2012-11-11T09:23:19Z</time>
   </trkpt>
   <trkpt lat="51.397534" lon="-2.825272">
    <ele>12.517</ele>
    <time>2012-11-11T09:23:31Z</time>
   </trkpt>
   <trkpt lat="51.396597" lon="-2.825003">
    <ele>12.109</ele>
    <time>2012-11-11T09:23:44Z</time>
   </trkpt>
   <trkpt lat="51.395666" lon="-2.824749">
    <ele>12.756</ele>
    <time>2012-11-11T09:23:58Z</time>
   </trkpt>
   <trkpt lat="51.394763" lon="-2.824882">
    <ele>13.499</ele>
    <time>2012-11-11T09:24:12Z</time>
   </trkpt>
   <trkpt lat="51.393823" lon="-2.824926">
    <ele>15.758</ele>
    <time>2012-11-11T09:24:28Z</time>
   </trkpt>
   <trkpt lat="51.393048" lon="-2.825704">
    <ele>17.273</ele>
    <time>2012-11-11T09:24:43Z</time>
   </trkpt>
   <trkpt lat="51.392487" lon="-2.826827">
    <ele>18.109</ele>
    <time>2012-11-11T09:25:02Z</time>
   </trkpt>
   <trkpt lat="51.391718" lon="-2.826081">
    <ele>18.037</ele>
    <time>2012-11-11T09:25:19Z</time>
   </trkpt>
   <trkpt lat="51.390867" lon="-2.825418">
    <ele>16.473</ele>
    <time>2012-11-11T09:25:32Z</time>
   </trkpt>
   <trkpt lat="51.390050" lon="-2.824835">
    <ele>16.649</ele>
    <time>2012-11-11T09:25:44Z</time>
   </trkpt>
   <trkpt lat="51.389167" lon="-2.824157">
    <ele>16.867</ele>
    <time>2012-11-11T09:25:58Z</time>
   </trkpt>
   <trkpt lat="51.388470" lon="-2.823105">
    <ele>16.376</ele>
    <time>2012-11-11T09:26:11Z</time>
   </trkpt>
   <trkpt lat="51.387883" lon="-2.821982">
    <ele>16.178</ele>
    <time>2012-11-11T09:26:26Z</time>
   </trkpt>
   <trkpt lat="51.387222" lon="-2.820897">
    <ele>17.044</ele>
    <time>2012-11-11T09:26:50Z</time>
   </trkpt>
   <trkpt lat="51.386693" lon="-2.819560">
    <ele>15.982</ele>
    <time>2012-11-11T09:27:04Z</time>
   </trkpt>
   <trkpt lat="51.386243" lon="-2.818282">
    <ele>15.196</ele>
    <time>2012-11-11T09:27:16Z</time>
   </trkpt>
   <trkpt lat="51.385652" lon="-2.817150">
    <ele>14.669</ele>
    <time>2012-11-11T09:27:28Z</time>
   </trkpt>
   <trkpt lat="51.385072" lon="-2.815916">
    <ele>14.710</ele>
    <time>2012-11-11T09:27:41Z</time>
   </trkpt>
   <trkpt lat="51.384705" lon="-2.814560">
    <ele>17.912</ele>
    <time>2012-11-11T09:27:54Z</time>
   </trkpt>
   <trkpt lat="51.384126" lon="-2.813458">
    <ele>21.849</ele>
    <time>2012-11-11T09:28:10Z</time>
   </trkpt>
   <trkpt lat="51.383637" lon="-2.812192">
    <ele>24.409</ele>
    <time>2012-11-11T09:28:33Z</time>
   </trkpt>
   <trkpt lat="51.382781" lon="-2.811723">
    <ele>24.454</ele>
    <time>2012-11-11T09:28:47Z</time>
   </trkpt>
   <trkpt lat="51.381862" lon="-2.811500">
    <ele>27.665</ele>
    <time>2012-11-11T09:29:01Z</time>
   </trkpt>
   <trkpt lat="51.380970" lon="-2.811016">
    <ele>28.823</ele>
    <time>2012-11-11T09:29:16Z</time>
   </trkpt>
   <trkpt lat="51.380098" lon="-2.810476">
    <ele>26.577</ele>
    <time>2012-11-11T09:29:29Z</time>
   </trkpt>
   <trkpt lat="51.379166" lon="-2.810108">
    <ele>21.029</ele>
    <time>2012-11-11T09:29:41Z</time>
   </trkpt>
   <trkpt lat="51.378186" lon="-2.810227">
    <ele>15.619</ele>
    <time>2012-11-11T09:29:51Z</time>
   </trkpt>
   <trkpt lat="51.377280" lon="-2.810237">
    <ele>11.732</ele>
    <time>2012-11-11T09:30:00Z</time>
   </trkpt>
   <trkpt lat="51.376385" lon="-2.810075">
    <ele>10.681</ele>
    <time>2012-11-11T09:30:10Z</time>
   </trkpt>
   <trkpt lat="51.375429" lon="-2.810105">
    <ele>11.074</ele>
    <time>2012-11-11T09:30:22Z</time>
   </trkpt>
   <trkpt lat="51.374549" lon="-2.810562">
    <ele>10.427</ele>
    <time>2012-11-11T09:30:34Z</time>
   </trkpt>
   <trkpt lat="51.373730" lon="-2.810029">
    <ele>11.374</ele>
    <time>2012-11-11T09:30:46Z</time>
   </trkpt>
   <trkpt lat="51.373103" lon="-2.808981">
    <ele>11.853</ele>
    <time>2012-11-11T09:31:01Z</time>
   </trkpt>
   <trkpt lat="51.372207" lon="-2.808809">
    <ele>12.127</ele>
    <time>2012-11-11T09:31:18Z</time>
   </trkpt>
   <trkpt lat="51.371935" lon="-2.808745">
    <ele>10.420</ele>
    <time>2012-11-11T09:34:13Z</time>
   </trkpt>
   <trkpt lat="51.372701" lon="-2.808004">
    <ele>9.796</ele>
    <time>2012-11-11T09:34:29Z</time>
   </trkpt>
   <trkpt lat="51.373556" lon="-2.807320">
    <ele>9.909</ele>
    <time>2012-11-11T09:34:44Z</time>
   </trkpt>
   <trkpt lat="51.374372" lon="-2.806572">
    <ele>11.539</ele>
    <time>2012-11-11T09:34:59Z</time>
   </trkpt>
   <trkpt lat="51.374592" lon="-2.805156">
    <ele>14.730</ele>
    <time>2012-11-11T09:35:14Z</time>
   </trkpt>
   <trkpt lat="51.374783" lon="-2.803732">
    <ele>19.604</ele>
    <time>2012-11-11T09:35:32Z</time>
   </trkpt>
   <trkpt lat="51.374780" lon="-2.802218">
    <ele>17.614</ele>
    <time>2012-11-11T09:35:47Z</time>
   </trkpt>
   <trkpt lat="51.374493" lon="-2.800729">
    <ele>17.301</ele>
    <time>2012-11-11T09:36:00Z</time>
   </trkpt>
   <trkpt lat="51.374327" lon="-2.799267">
    <ele>19.623</ele>
    <time>2012-11-11T09:36:13Z</time>
   </trkpt>
   <trkpt lat="51.374266" lon="-2.797738">
    <ele>24.318</ele>
    <time>2012-11-11T09:36:31Z</time>
   </trkpt>
   <trkpt lat="51.373725" lon="-2.796600">
    <ele>25.808</ele>
    <time>2012-11-11T09:37:05Z</time>
   </trkpt>
   <trkpt lat="51.372955" lon="-2.795831">
    <ele>22.861</ele>
    <time>2012-11-11T09:37:17Z</time>
   </trkpt>
   <trkpt lat="51.372104" lon="-2.795075">
    <ele>21.976</ele>
    <time>2012-11-11T09:37:29Z</time>
   </trkpt>
   <trkpt lat="51.371239" lon="-2.794210">
    <ele>21.578</ele>
    <time>2012-11-11T09:37:42Z</time>
   </trkpt>
   <trkpt lat="51.370450" lon="-2.793295">
    <ele>19.750</ele>
    <time>2012-11-11T09:37:54Z</time>
   </trkpt>
   <trkpt lat="51.369761" lon="-2.792330">
    <ele>19.665</ele>
    <time>2012-11-11T09:38:05Z</time>
   </trkpt>
   <trkpt lat="51.369002" lon="-2.791431">
    <ele>21.429</ele>
    <time>2012-11-11T09:38:17Z</time>
   </trkpt>
   <trkpt lat="51.368371" lon="-2.790369">
    <ele>20.647</ele>
    <time>2012-11-11T09:38:28Z</time>
   </trkpt>
   <trkpt lat="51.367863" lon="-2.789090">
    <ele>20.444</ele>
    <time>2012-11-11T09:38:40Z</time>
   </trkpt>
   <trkpt lat="51.368072" lon="-2.787735">
    <ele>21.250</ele>
    <time>2012-11-11T09:38:53Z</time>
   </trkpt>
   <trkpt lat="51.368614" lon="-2.786553">
    <ele>24.076</ele>
    <time>2012-11-11T09:39:06Z</time>
   </trkpt>
   <trkpt lat="51.368950" lon="-2.785158">
    <ele>27.751</ele>
    <time>2012-11-11T09:39:21Z</time>
   </trkpt>
   <trkpt lat="51.369258" lon="-2.783763">
    <ele>32.055</ele>
    <time>2012-11-11T09:39:38Z</time>
   </trkpt>
   <trkpt lat="51.369207" lon="-2.782330">
    <ele>34.138</ele>
    <time>2012-11-11T09:39:54Z</time>
   </trkpt>
   <trkpt lat="51.369135" lon="-2.780807">
    <ele>36.159</ele>
    <time>2012-11-11T09:40:11Z</time>
   </trkpt>
   <trkpt lat="51.369073" lon="-2.779339">
    <ele>38.808</ele>
    <time>2012-11-11T09:40:28Z</time>
   </trkpt>
   <trkpt lat="51.368863" lon="-2.777878">
    <ele>41.849</ele>
    <time>2012-11-11T09:40:45Z</time>
   </trkpt>
   <trkpt lat="51.368242" lon="-2.776690">
    <ele>36.042</ele>
    <time>2012-11-11T09:40:59Z</time>
   </trkpt>
   <trkpt lat="51.367639" lon="-2.775453">
    <ele>33.078</ele>
    <time>2012-11-11T09:41:10Z</time>
   </trkpt>
   <trkpt lat="51.367102" lon="-2.774119">
    <ele>31.393</ele>
    <time>2012-11-11T09:41:22Z</time>
   </trkpt>
   <trkpt lat="51.366644" lon="-2.772732">
    <ele>30.072</ele>
    <time>2012-11-11T09:41:33Z</time>
   </trkpt>
   <trkpt lat="51.366264" lon="-2.771317">
    <ele>28.034</ele>
    <time>2012-11-11T09:41:43Z</time>
   </trkpt>
   <trkpt lat="51.365841" lon="-2.769954">
    <ele>29.008</ele>
    <time>2012-11-11T09:41:53Z</time>
   </trkpt>
   <trkpt lat="51.365475" lon="-2.768482">
    <ele>30.699</ele>
    <time>2012-11-11T09:42:04Z</time>
   </trkpt>
   <trkpt lat="51.365217" lon="-2.767039">
    <ele>31.178</ele>
    <time>2012-11-11T09:42:15Z</time>
   </trkpt>
   <trkpt lat="51.364876" lon="-2.765586">
    <ele>33.869</ele>
    <time>2012-11-11T09:42:27Z</time>
   </trkpt>
   <trkpt lat="51.364379" lon="-2.764329">
    <ele>34.684</ele>
    <time>2012-11-11T09:42:43Z</time>
   </trkpt>
   <trkpt lat="51.363820" lon="-2.763148">
    <ele>30.221</ele>
    <time>2012-11-11T09:42:59Z</time>
   </trkpt>
   <trkpt lat="51.362918" lon="-2.762833">
    <ele>21.517</ele>
    <time>2012-11-11T09:43:17Z</time>
   </trkpt>
   <trkpt lat="51.362034" lon="-2.762875">
    <ele>19.887</ele>
    <time>2012-11-11T09:43:32Z</time>
   </trkpt>
   <trkpt lat="51.361859" lon="-2.764250">
    <ele>18.165</ele>
    <time>2012-11-11T09:43:50Z</time>
   </trkpt>
   <trkpt lat="51.361230" lon="-2.764993">
    <ele>16.361</ele>
    <time>2012-11-11T09:44:05Z</time>
   </trkpt>
   <trkpt lat="51.360313" lon="-2.765294">
    <ele>14.586</ele>
    <time>2012-11-11T09:44:17Z</time>
   </trkpt>
   <trkpt lat="51.359422" lon="-2.765419">
    <ele>15.023</ele>
    <time>2012-11-11T09:44:30Z</time>
   </trkpt>
   <trkpt lat="51.358333" lon="-2.765481">
    <ele>16.258</ele>
    <time>2012-11-11T09:44:46Z</time>
   </trkpt>
   <trkpt lat="51.357404" lon="-2.765872">
    <ele>15.821</ele>
    <time>2012-11-11T09:45:00Z</time>
   </trkpt>
   <trkpt lat="51.356441" lon="-2.766324">
    <ele>9.693</ele>
    <time>2012-11-11T09:45:12Z</time>
   </trkpt>
   <trkpt lat="51.355609" lon="-2.767034">
    <ele>9.862</ele>
    <time>2012-11-11T09:45:23Z</time>
   </trkpt>
   <trkpt lat="51.354674" lon="-2.767439">
    <ele>10.734</ele>
    <time>2012-11-11T09:45:35Z</time>
   </trkpt>
   <trkpt lat="51.353796" lon="-2.767856">
    <ele>13.986</ele>
    <time>2012-11-11T09:45:49Z</time>
   </trkpt>
   <trkpt lat="51.352942" lon="-2.768292">
    <ele>15.908</ele>
    <time>2012-11-11T09:46:05Z</time>
   </trkpt>
   <trkpt lat="51.352052" lon="-2.768729">
    <ele>17.144</ele>
    <time>2012-11-11T09:46:20Z</time>
   </trkpt>
   <trkpt lat="51.351139" lon="-2.769200">
    <ele>17.048</ele>
    <time>2012-11-11T09:46:35Z</time>
   </trkpt>
   <trkpt lat="51.350274" lon="-2.769683">
    <ele>14.009</ele>
    <time>2012-11-11T09:46:48Z</time>
   </trkpt>
   <trkpt lat="51.349410" lon="-2.770190">
    <ele>13.331</ele>
    <time>2012-11-11T09:47:01Z</time>
   </trkpt>
   <trkpt lat="51.348485" lon="-2.770230">
    <ele>13.481</ele>
    <time>2012-11-11T09:47:15Z</time>
   </trkpt>
   <trkpt lat="51.347589" lon="-2.770182">
    <ele>13.585</ele>
    <time>2012-11-11T09:47:27Z</time>
   </trkpt>
   <trkpt lat="51.346836" lon="-2.770887">
    <ele>14.787</ele>
    <time>2012-11-11T09:47:41Z</time>
   </trkpt>
   <trkpt lat="51.346064" lon="-2.771776">
    <ele>15.253</ele>
    <time>2012-11-11T09:47:57Z</time>
   </trkpt>
   <trkpt lat="51.345129" lon="-2.771546">
    <ele>16.184</ele>
    <time>2012-11-11T09:48:13Z</time>
   </trkpt>
   <trkpt lat="51.344209" lon="-2.771231">
    <ele>16.475</ele>
    <time>2012-11-11T09:48:27Z</time>
   </trkpt>
   <trkpt lat="51.343288" lon="-2.771279">
    <ele>16.853</ele>
    <time>2012-11-11T09:48:40Z</time>
   </trkpt>
   <trkpt lat="51.342738" lon="-2.770554">
    <ele>18.071</ele>
    <time>2012-11-11T09:48:59Z</time>
   </trkpt>
   <trkpt lat="51.342385" lon="-2.769246">
    <ele>20.274</ele>
    <time>2012-11-11T09:49:12Z</time>
   </trkpt>
   <trkpt lat="51.341897" lon="-2.767902">
    <ele>20.520</ele>
    <time>2012-11-11T09:49:27Z</time>
   </trkpt>
   <trkpt lat="51.341624" lon="-2.766519">
    <ele>22.210</ele>
    <time>2012-11-11T09:49:41Z</time>
   </trkpt>
   <trkpt lat="51.341601" lon="-2.765044">
    <ele>23.965</ele>
    <time>2012-11-11T09:49:56Z</time>
   </trkpt>
   <trkpt lat="51.341364" lon="-2.763662">
    <ele>24.694</ele>
    <time>2012-11-11T09:50:10Z</time>
   </trkpt>
   <trkpt lat="51.341051" lon="-2.762259">
    <ele>25.090</ele>
    <time>2012-11-11T09:50:23Z</time>
   </trkpt>
   <trkpt lat="51.340825" lon="-2.760932">
    <ele>29.196</ele>
    <time>2012-11-11T09:50:40Z</time>
   </trkpt>
   <trkpt lat="51.340002" lon="-2.760721">
    <ele>30.540</ele>
    <time>2012-11-11T09:50:56Z</time>
   </trkpt>
   <trkpt lat="51.339087" lon="-2.760826">
    <ele>32.218</ele>
    <time>2012-11-11T09:51:10Z</time>
   </trkpt>
   <trkpt lat="51.338238" lon="-2.760398">
    <ele>33.975</ele>
    <time>2012-11-11T09:51:25Z</time>
   </trkpt>
   <trkpt lat="51.337928" lon="-2.759003">
    <ele>36.550</ele>
    <time>2012-11-11T09:51:42Z</time>
   </trkpt>
   <trkpt lat="51.337304" lon="-2.757947">
    <ele>39.041</ele>
    <time>2012-11-11T09:52:01Z</time>
   </trkpt>
   <trkpt lat="51.336932" lon="-2.756657">
    <ele>41.781</ele>
    <time>2012-11-11T09:52:19Z</time>
   </trkpt>
   <trkpt lat="51.336349" lon="-2.755565">
    <ele>43.957</ele>
    <time>2012-11-11T09:52:38Z</time>
   </trkpt>
   <trkpt lat="51.335469" lon="-2.755047">
    <ele>46.432</ele>
    <time>2012-11-11T09:52:58Z</time>
   </trkpt>
   <trkpt lat="51.334625" lon="-2.754442">
    <ele>49.675</ele>
    <time>2012-11-11T09:53:18Z</time>
   </trkpt>
   <trkpt lat="51.333908" lon="-2.753475">
    <ele>52.812</ele>
    <time>2012-11-11T09:53:36Z</time>
   </trkpt>
   <trkpt lat="51.333261" lon="-2.752472">
    <ele>56.046</ele>
    <time>2012-11-11T09:53:53Z</time>
   </trkpt>
   <trkpt lat="51.332625" lon="-2.751412">
    <ele>59.523</ele>
    <time>2012-11-11T09:54:11Z</time>
   </trkpt>
   <trkpt lat="51.331920" lon="-2.751809">
    <ele>60.296</ele>
    <time>2012-11-11T09:54:36Z</time>
   </trkpt>
   <trkpt lat="51.331021" lon="-2.751549">
    <ele>63.444</ele>
    <time>2012-11-11T09:54:54Z</time>
   </trkpt>
   <trkpt lat="51.330092" lon="-2.751378">
    <ele>67.847</ele>
    <time>2012-11-11T09:55:14Z</time>
   </trkpt>
   <trkpt lat="51.329242" lon="-2.751644">
    <ele>74.267</ele>
    <time>2012-11-11T09:55:37Z</time>
   </trkpt>
   <trkpt lat="51.328361" lon="-2.752351">
    <ele>79.039</ele>
    <time>2012-11-11T09:56:06Z</time>
   </trkpt>
   <trkpt lat="51.327506" lon="-2.752834">
    <ele>83.595</ele>
    <time>2012-11-11T09:56:33Z</time>
   </trkpt>
   <trkpt lat="51.326617" lon="-2.753039">
    <ele>86.660</ele>
    <time>2012-11-11T09:56:55Z</time>
   </trkpt>
   <trkpt lat="51.325709" lon="-2.752836">
    <ele>91.247</ele>
    <time>2012-11-11T09:57:17Z</time>
   </trkpt>
   <trkpt lat="51.324876" lon="-2.753353">
    <ele>95.254</ele>
    <time>2012-11-11T09:57:39Z</time>
   </trkpt>
   <trkpt lat="51.324055" lon="-2.752658">
    <ele>101.625</ele>
    <time>2012-11-11T09:58:07Z</time>
   </trkpt>
   <trkpt lat="51.323196" lon="-2.752519">
    <ele>105.591</ele>
    <time>2012-11-11T09:58:33Z</time>
   </trkpt>
   <trkpt lat="51.322282" lon="-2.752429">
    <ele>113.395</ele>
    <time>2012-11-11T09:59:02Z</time>
   </trkpt>
   <trkpt lat="51.321577" lon="-2.751785">
    <ele>118.381</ele>
    <time>2012-11-11T09:59:30Z</time>
   </trkpt>
   <trkpt lat="51.321350" lon="-2.750368">
    <ele>124.115</ele>
    <time>2012-11-11T10:00:00Z</time>
   </trkpt>
   <trkpt lat="51.320996" lon="-2.749034">
    <ele>132.029</ele>
    <time>2012-11-11T10:00:33Z</time>
   </trkpt>
   <trkpt lat="51.320599" lon="-2.747707">
    <ele>139.149</ele>
    <time>2012-11-11T10:01:07Z</time>
   </trkpt>
   <trkpt lat="51.320335" lon="-2.746290">
    <ele>143.392</ele>
    <time>2012-11-11T10:01:32Z</time>
   </trkpt>
   <trkpt lat="51.320366" lon="-2.744840">
    <ele>148.996</ele>
    <time>2012-11-11T10:02:02Z</time>
   </trkpt>
   <trkpt lat="51.320544" lon="-2.743453">
    <ele>158.561</ele>
    <time>2012-11-11T10:02:38Z</time>
   </trkpt>
   <trkpt lat="51.320313" lon="-2.742007">
    <ele>163.698</ele>
    <time>2012-11-11T10:05:56Z</time>
   </trkpt>
   <trkpt lat="51.320118" lon="-2.740570">
    <ele>171.495</ele>
    <time>2012-11-11T10:06:21Z</time>
   </trkpt>
   <trkpt lat="51.320067" lon="-2.738982">
    <ele>178.462</ele>
    <time>2012-11-11T10:06:49Z</time>
   </trkpt>
   <trkpt lat="51.320080" lon="-2.737306">
    <ele>185.110</ele>
    <time>2012-11-11T10:07:16Z</time>
   </trkpt>
   <trkpt lat="51.319987" lon="-2.735804">
    <ele>189.820</ele>
    <time>2012-11-11T10:07:48Z</time>
   </trkpt>
   <trkpt lat="51.319948" lon="-2.734362">
    <ele>194.816</ele>
    <time>2012-11-11T10:08:18Z</time>
   </trkpt>
   <trkpt lat="51.319221" lon="-2.733558">
    <ele>199.520</ele>
    <time>2012-11-11T10:08:46Z</time>
   </trkpt>
   <trkpt lat="51.318804" lon="-2.732223">
    <ele>205.792</ele>
    <time>2012-11-11T10:09:14Z</time>
   </trkpt>
   <trkpt lat="51.318480" lon="-2.730905">
    <ele>208.516</ele>
    <time>2012-11-11T10:09:36Z</time>
   </trkpt>
   <trkpt lat="51.318044" lon="-2.729618">
    <ele>211.533</ele>
    <time>2012-11-11T10:09:56Z</time>
   </trkpt>
   <trkpt lat="51.317492" lon="-2.728450">
    <ele>222.797</ele>
    <time>2012-11-11T10:10:29Z</time>
   </trkpt>
   <trkpt lat="51.317028" lon="-2.727223">
    <ele>230.099</ele>
    <time>2012-11-11T10:11:01Z</time>
   </trkpt>
   <trkpt lat="51.316537" lon="-2.725962">
    <ele>236.666</ele>
    <time>2012-11-11T10:11:31Z</time>
   </trkpt>
   <trkpt lat="51.316092" lon="-2.724664">
    <ele>241.847</ele>
    <time>2012-11-11T10:11:59Z</time>
   </trkpt>
   <trkpt lat="51.315649" lon="-2.723401">
    <ele>245.160</ele>
    <time>2012-11-11T10:12:26Z</time>
   </trkpt>
   <trkpt lat="51.315214" lon="-2.722135">
    <ele>250.417</ele>
    <time>2012-11-11T10:13:07Z</time>
   </trkpt>
   <trkpt lat="51.314845" lon="-2.720859">
    <ele>256.939</ele>
    <time>2012-11-11T10:14:36Z</time>
   </trkpt>
   <trkpt lat="51.314461" lon="-2.719529">
    <ele>263.438</ele>
    <time>2012-11-11T10:15:03Z</time>
   </trkpt>
   <trkpt lat="51.314068" lon="-2.718242">
    <ele>270.242</ele>
    <time>2012-11-11T10:15:30Z</time>
   </trkpt>
   <trkpt lat="51.313633" lon="-2.716908">
    <ele>273.101</ele>
    <time>2012-11-11T10:15:54Z</time>
   </trkpt>
   <trkpt lat="51.313216" lon="-2.715608">
    <ele>273.286</ele>
    <time>2012-11-11T10:18:06Z</time>
   </trkpt>
   <trkpt lat="51.312845" lon="-2.714197">
    <ele>270.428</ele>
    <time>2012-11-11T10:18:20Z</time>
   </trkpt>
   <trkpt lat="51.312445" lon="-2.712831">
    <ele>267.361</ele>
    <time>2012-11-11T10:18:32Z</time>
   </trkpt>
   <trkpt lat="51.312044" lon="-2.711485">
    <ele>265.969</ele>
    <time>2012-11-11T10:18:43Z</time>
   </trkpt>
   <trkpt lat="51.311597" lon="-2.710078">
    <ele>263.543</ele>
    <time>2012-11-11T10:18:54Z</time>
   </trkpt>
   <trkpt lat="51.310955" lon="-2.708949">
    <ele>259.567</ele>
    <time>2012-11-11T10:19:04Z</time>
   </trkpt>
   <trkpt lat="51.310305" lon="-2.707919">
    <ele>259.893</ele>
    <time>2012-11-11T10:19:15Z</time>
   </trkpt>
   <trkpt lat="51.309667" lon="-2.706902">
    <ele>259.151</ele>
    <time>2012-11-11T10:19:28Z</time>
   </trkpt>
   <trkpt lat="51.309000" lon="-2.705839">
    <ele>256.758</ele>
    <time>2012-11-11T10:19:41Z</time>
   </trkpt>
   <trkpt lat="51.308329" lon="-2.704771">
    <ele>253.656</ele>
    <time>2012-11-11T10:19:52Z</time>
   </trkpt>
   <trkpt lat="51.307631" lon="-2.703648">
    <ele>247.796</ele>
    <time>2012-11-11T10:20:02Z</time>
   </trkpt>
   <trkpt lat="51.306910" lon="-2.702724">
    <ele>244.852</ele>
    <time>2012-11-11T10:20:11Z</time>
   </trkpt>
   <trkpt lat="51.306041" lon="-2.702030">
    <ele>244.462</ele>
    <time>2012-11-11T10:20:21Z</time>
   </trkpt>
   <trkpt lat="51.305251" lon="-2.701248">
    <ele>247.028</ele>
    <time>2012-11-11T10:20:33Z</time>
   </trkpt>
   <trkpt lat="51.304485" lon="-2.700407">
    <ele>245.728</ele>
    <time>2012-11-11T10:20:46Z</time>
   </trkpt>
   <trkpt lat="51.303751" lon="-2.699543">
    <ele>251.175</ele>
    <time>2012-11-11T10:21:00Z</time>
   </trkpt>
   <trkpt lat="51.302973" lon="-2.698766">
    <ele>254.421</ele>
    <time>2012-11-11T10:21:20Z</time>
   </trkpt>
   <trkpt lat="51.302124" lon="-2.698156">
    <ele>254.760</ele>
    <time>2012-11-11T10:21:37Z</time>
   </trkpt>
   <trkpt lat="51.301239" lon="-2.697567">
    <ele>258.525</ele>
    <time>2012-11-11T10:22:25Z</time>
   </trkpt>
   <trkpt lat="51.300417" lon="-2.696893">
    <ele>258.669</ele>
    <time>2012-11-11T10:22:48Z</time>
   </trkpt>
   <trkpt lat="51.300512" lon="-2.695479">
    <ele>258.053</ele>
    <time>2012-11-11T10:23:33Z</time>
   </trkpt>
   <trkpt lat="51.300696" lon="-2.693932">
    <ele>256.146</ele>
    <time>2012-11-11T10:25:24Z</time>
   </trkpt>
   <trkpt lat="51.300902" lon="-2.692374">
    <ele>250.204</ele>
    <time>2012-11-11T10:25:37Z</time>
   </trkpt>
   <trkpt lat="51.301095" lon="-2.690901">
    <ele>246.416</ele>
    <time>2012-11-11T10:25:48Z</time>
   </trkpt>
   <trkpt lat="51.301333" lon="-2.689389">
    <ele>251.883</ele>
    <time>2012-11-11T10:26:03Z</time>
   </trkpt>
   <trkpt lat="51.301479" lon="-2.687926">
    <ele>255.251</ele>
    <time>2012-11-11T10:26:21Z</time>
   </trkpt>
   <trkpt lat="51.301357" lon="-2.686498">
    <ele>257.362</ele>
    <time>2012-11-11T10:26:39Z</time>
   </trkpt>
   <trkpt lat="51.301880" lon="-2.685347">
    <ele>256.939</ele>
    <time>2012-11-11T10:26:54Z</time>
   </trkpt>
   <trkpt lat="51.302544" lon="-2.684325">
    <ele>254.737</ele>
    <time>2012-11-11T10:27:07Z</time>
   </trkpt>
   <trkpt lat="51.303211" lon="-2.683277">
    <ele>254.327</ele>
    <time>2012-11-11T10:27:20Z</time>
   </trkpt>
   <trkpt lat="51.303521" lon="-2.682102">
    <ele>254.279</ele>
    <time>2012-11-11T10:27:39Z</time>
   </trkpt>
   <trkpt lat="51.303263" lon="-2.680616">
    <ele>255.001</ele>
    <time>2012-11-11T10:27:54Z</time>
   </trkpt>
   <trkpt lat="51.303014" lon="-2.679213">
    <ele>258.555</ele>
    <time>2012-11-11T10:28:09Z</time>
   </trkpt>
   <trkpt lat="51.302778" lon="-2.677827">
    <ele>259.774</ele>
    <time>2012-11-11T10:28:56Z</time>
   </trkpt>
   <trkpt lat="51.302616" lon="-2.676392">
    <ele>257.959</ele>
    <time>2012-11-11T10:29:49Z</time>
   </trkpt>
   <trkpt lat="51.302526" lon="-2.674825">
    <ele>252.234</ele>
    <time>2012-11-11T10:30:04Z</time>
   </trkpt>
   <trkpt lat="51.302422" lon="-2.673360">
    <ele>251.113</ele>
    <time>2012-11-11T10:30:15Z</time>
   </trkpt>
   <trkpt lat="51.302341" lon="-2.671873">
    <ele>247.415</ele>
    <time>2012-11-11T10:30:26Z</time>
   </trkpt>
   <trkpt lat="51.302326" lon="-2.670322">
    <ele>242.904</ele>
    <time>2012-11-11T10:30:37Z</time>
   </trkpt>
   <trkpt lat="51.302272" lon="-2.668800">
    <ele>236.948</ele>
    <time>2012-11-11T10:30:48Z</time>
   </trkpt>
   <trkpt lat="51.302371" lon="-2.667172">
    <ele>230.285</ele>
    <time>2012-11-11T10:30:59Z</time>
   </trkpt>
   <trkpt lat="51.302555" lon="-2.665707">
    <ele>233.892</ele>
    <time>2012-11-11T10:31:11Z</time>
   </trkpt>
   <trkpt lat="51.302756" lon="-2.664284">
    <ele>234.394</ele>
    <time>2012-11-11T10:31:25Z</time>
   </trkpt>
   <trkpt lat="51.302890" lon="-2.662794">
    <ele>236.920</ele>
    <time>2012-11-11T10:31:40Z</time>
   </trkpt>
   <trkpt lat="51.302747" lon="-2.661383">
    <ele>237.675</ele>
    <time>2012-11-11T10:31:54Z</time>
   </trkpt>
   <trkpt lat="51.302540" lon="-2.659934">
    <ele>237.016</ele>
    <time>2012-11-11T10:32:07Z</time>
   </trkpt>
   <trkpt lat="51.302142" lon="-2.658571">
    <ele>233.340</ele>
    <time>2012-11-11T10:32:19Z</time>
   </trkpt>
   <trkpt lat="51.301712" lon="-2.657216">
    <ele>229.961</ele>
    <time>2012-11-11T10:32:29Z</time>
   </trkpt>
   <trkpt lat="51.301293" lon="-2.655880">
    <ele>229.932</ele>
    <time>2012-11-11T10:32:40Z</time>
   </trkpt>
   <trkpt lat="51.300880" lon="-2.654561">
    <ele>227.450</ele>
    <time>2012-11-11T10:33:32Z</time>
   </trkpt>
   <trkpt lat="51.300365" lon="-2.653756">
    <ele>225.371</ele>
    <time>2012-11-11T10:34:07Z</time>
   </trkpt>
   <trkpt lat="51.299511" lon="-2.654320">
    <ele>231.471</ele>
    <time>2012-11-11T10:34:34Z</time>
   </trkpt>
   <trkpt lat="51.298588" lon="-2.654554">
    <ele>237.788</ele>
    <time>2012-11-11T10:34:59Z</time>
   </trkpt>
   <trkpt lat="51.297684" lon="-2.654806">
    <ele>242.509</ele>
    <time>2012-11-11T10:35:23Z</time>
   </trkpt>
   <trkpt lat="51.296786" lon="-2.655054">
    <ele>246.744</ele>
    <time>2012-11-11T10:35:47Z</time>
   </trkpt>
   <trkpt lat="51.295883" lon="-2.655289">
    <ele>253.020</ele>
    <time>2012-11-11T10:36:12Z</time>
   </trkpt>
   <trkpt lat="51.294968" lon="-2.655536">
    <ele>257.613</ele>
    <time>2012-11-11T10:36:37Z</time>
   </trkpt>
   <trkpt lat="51.294068" lon="-2.655772">
    <ele>255.982</ele>
    <time>2012-11-11T10:36:57Z</time>
   </trkpt>
   <trkpt lat="51.293170" lon="-2.656422">
    <ele>246.949</ele>
    <time>2012-11-11T10:37:10Z</time>
   </trkpt>
   <trkpt lat="51.292381" lon="-2.657273">
    <ele>241.009</ele>
    <time>2012-11-11T10:37:20Z</time>
   </trkpt>
   <trkpt lat="51.291577" lon="-2.658057">
    <ele>237.501</ele>
    <time>2012-11-11T10:37:30Z</time>
   </trkpt>
   <trkpt lat="51.290732" lon="-2.658583">
    <ele>243.987</ele>
    <time>2012-11-11T10:37:44Z</time>
   </trkpt>
   <trkpt lat="51.289790" lon="-2.658867">
    <ele>246.901</ele>
    <time>2012-11-11T10:38:02Z</time>
   </trkpt>
   <trkpt lat="51.288852" lon="-2.659117">
    <ele>248.821</ele>
    <time>2012-11-11T10:38:20Z</time>
   </trkpt>
   <trkpt lat="51.287913" lon="-2.659201">
    <ele>248.277</ele>
    <time>2012-11-11T10:38:36Z</time>
   </trkpt>
   <trkpt lat="51.286988" lon="-2.659035">
    <ele>250.976</ele>
    <time>2012-11-11T10:38:52Z</time>
   </trkpt>
   <trkpt lat="51.286077" lon="-2.658746">
    <ele>253.384</ele>
    <time>2012-11-11T10:39:09Z</time>
   </trkpt>
   <trkpt lat="51.285192" lon="-2.658410">
    <ele>255.151</ele>
    <time>2012-11-11T10:39:27Z</time>
   </trkpt>
   <trkpt lat="51.284293" lon="-2.658058">
    <ele>256.830</ele>
    <time>2012-11-11T10:39:45Z</time>
   </trkpt>
   <trkpt lat="51.283424" lon="-2.657687">
    <ele>260.759</ele>
    <time>2012-11-11T10:41:02Z</time>
   </trkpt>
   <trkpt lat="51.282526" lon="-2.657356">
    <ele>265.250</ele>
    <time>2012-11-11T10:41:26Z</time>
   </trkpt>
   <trkpt lat="51.281643" lon="-2.657109">
    <ele>272.457</ele>
    <time>2012-11-11T10:42:01Z</time>
   </trkpt>
   <trkpt lat="51.280703" lon="-2.656836">
    <ele>272.900</ele>
    <time>2012-11-11T10:42:21Z</time>
   </trkpt>
   <trkpt lat="51.279785" lon="-2.656569">
    <ele>271.626</ele>
    <time>2012-11-11T10:42:36Z</time>
   </trkpt>
   <trkpt lat="51.278888" lon="-2.656301">
    <ele>269.102</ele>
    <time>2012-11-11T10:42:48Z</time>
   </trkpt>
   <trkpt lat="51.277976" lon="-2.656026">
    <ele>266.229</ele>
    <time>2012-11-11T10:42:59Z</time>
   </trkpt>
   <trkpt lat="51.277061" lon="-2.655763">
    <ele>263.940</ele>
    <time>2012-11-11T10:43:10Z</time>
   </trkpt>
   <trkpt lat="51.276148" lon="-2.655549">
    <ele>263.046</ele>
    <time>2012-11-11T10:43:22Z</time>
   </trkpt>
   <trkpt lat="51.275267" lon="-2.655235">
    <ele>261.992</ele>
    <time>2012-11-11T10:43:37Z</time>
   </trkpt>
   <trkpt lat="51.274293" lon="-2.654955">
    <ele>258.064</ele>
    <time>2012-11-11T10:43:49Z</time>
   </trkpt>
   <trkpt lat="51.273322" lon="-2.654667">
    <ele>256.342</ele>
    <time>2012-11-11T10:44:00Z</time>
   </trkpt>
   <trkpt lat="51.272347" lon="-2.654380">
    <ele>255.734</ele>
    <time>2012-11-11T10:44:11Z</time>
   </trkpt>
   <trkpt lat="51.271460" lon="-2.654125">
    <ele>257.727</ele>
    <time>2012-11-11T10:44:50Z</time>
   </trkpt>
   <trkpt lat="51.270519" lon="-2.653839">
    <ele>257.806</ele>
    <time>2012-11-11T10:45:06Z</time>
   </trkpt>
   <trkpt lat="51.269619" lon="-2.653495">
    <ele>257.676</ele>
    <time>2012-11-11T10:45:21Z</time>
   </trkpt>
   <trkpt lat="51.268740" lon="-2.653139">
    <ele>256.202</ele>
    <time>2012-11-11T10:45:35Z</time>
   </trkpt>
   <trkpt lat="51.268318" lon="-2.653528">
    <ele>256.222</ele>
    <time>2012-11-11T10:47:06Z</time>
   </trkpt>
   <trkpt lat="51.268366" lon="-2.654982">
    <ele>259.696</ele>
    <time>2012-11-11T10:47:27Z</time>
   </trkpt>
   <trkpt lat="51.268431" lon="-2.656458">
    <ele>263.990</ele>
    <time>2012-11-11T10:47:48Z</time>
   </trkpt>
   <trkpt lat="51.268500" lon="-2.657906">
    <ele>268.472</ele>
    <time>2012-11-11T10:48:12Z</time>
   </trkpt>
   <trkpt lat="51.268555" lon="-2.659348">
    <ele>271.803</ele>
    <time>2012-11-11T10:48:34Z</time>
   </trkpt>
   <trkpt lat="51.268682" lon="-2.660814">
    <ele>273.800</ele>
    <time>2012-11-11T10:48:55Z</time>
   </trkpt>
   <trkpt lat="51.268845" lon="-2.662253">
    <ele>272.335</ele>
    <time>2012-11-11T10:49:11Z</time>
   </trkpt>
   <trkpt lat="51.268987" lon="-2.663764">
    <ele>268.374</ele>
    <time>2012-11-11T10:49:25Z</time>
   </trkpt>
   <trkpt lat="51.269113" lon="-2.665250">
    <ele>264.606</ele>
    <time>2012-11-11T10:49:37Z</time>
   </trkpt>
   <trkpt lat="51.269244" lon="-2.666793">
    <ele>261.817</ele>
    <time>2012-11-11T10:49:50Z</time>
   </trkpt>
   <trkpt lat="51.269376" lon="-2.668290">
    <ele>258.938</ele>
    <time>2012-11-11T10:50:02Z</time>
   </trkpt>
   <trkpt lat="51.269485" lon="-2.669743">
    <ele>257.377</ele>
    <time>2012-11-11T10:50:14Z</time>
   </trkpt>
   <trkpt lat="51.269318" lon="-2.670885">
    <ele>259.708</ele>
    <time>2012-11-11T10:50:31Z</time>
   </trkpt>
   <trkpt lat="51.268507" lon="-2.670133">
    <ele>263.526</ele>
    <time>2012-11-11T10:51:40Z</time>
   </trkpt>
   <trkpt lat="51.267684" lon="-2.669229">
    <ele>264.976</ele>
    <time>2012-11-11T10:51:59Z</time>
   </trkpt>
   <trkpt lat="51.266790" lon="-2.668722">
    <ele>261.225</ele>
    <time>2012-11-11T10:52:13Z</time>
   </trkpt>
   <trkpt lat="51.265888" lon="-2.668483">
    <ele>257.687</ele>
    <time>2012-11-11T10:52:25Z</time>
   </trkpt>
   <trkpt lat="51.264965" lon="-2.668546">
    <ele>254.727</ele>
    <time>2012-11-11T10:52:39Z</time>
   </trkpt>
   <trkpt lat="51.264202" lon="-2.669406">
    <ele>247.523</ele>
    <time>2012-11-11T10:52:57Z</time>
   </trkpt>
   <trkpt lat="51.263659" lon="-2.670612">
    <ele>244.522</ele>
    <time>2012-11-11T10:53:15Z</time>
   </trkpt>
   <trkpt lat="51.263330" lon="-2.671975">
    <ele>242.473</ele>
    <time>2012-11-11T10:53:49Z</time>
   </trkpt>
   <trkpt lat="51.263238" lon="-2.673488">
    <ele>238.522</ele>
    <time>2012-11-11T10:54:09Z</time>
   </trkpt>
   <trkpt lat="51.263003" lon="-2.674949">
    <ele>238.144</ele>
    <time>2012-11-11T10:54:25Z</time>
   </trkpt>
   <trkpt lat="51.262544" lon="-2.676324">
    <ele>236.710</ele>
    <time>2012-11-11T10:54:40Z</time>
   </trkpt>
   <trkpt lat="51.262065" lon="-2.677582">
    <ele>236.965</ele>
    <time>2012-11-11T10:54:54Z</time>
   </trkpt>
   <trkpt lat="51.261442" lon="-2.678600">
    <ele>244.670</ele>
    <time>2012-11-11T10:55:16Z</time>
   </trkpt>
   <trkpt lat="51.260823" lon="-2.679681">
    <ele>243.727</ele>
    <time>2012-11-11T10:55:35Z</time>
   </trkpt>
   <trkpt lat="51.259918" lon="-2.679746">
    <ele>243.464</ele>
    <time>2012-11-11T10:56:05Z</time>
   </trkpt>
   <trkpt lat="51.258952" lon="-2.679607">
    <ele>239.459</ele>
    <time>2012-11-11T10:56:21Z</time>
   </trkpt>
   <trkpt lat="51.258075" lon="-2.679241">
    <ele>229.042</ele>
    <time>2012-11-11T10:56:31Z</time>
   </trkpt>
   <trkpt lat="51.257153" lon="-2.678983">
    <ele>227.759</ele>
    <time>2012-11-11T10:56:41Z</time>
   </trkpt>
   <trkpt lat="51.256247" lon="-2.679036">
    <ele>229.844</ele>
    <time>2012-11-11T10:56:54Z</time>
   </trkpt>
   <trkpt lat="51.255357" lon="-2.678670">
    <ele>230.574</ele>
    <time>2012-11-11T10:57:08Z</time>
   </trkpt>
   <trkpt lat="51.254538" lon="-2.677990">
    <ele>231.735</ele>
    <time>2012-11-11T10:57:26Z</time>
   </trkpt>
   <trkpt lat="51.253634" lon="-2.677605">
    <ele>232.227</ele>
    <time>2012-11-11T10:57:44Z</time>
   </trkpt>
   <trkpt lat="51.252712" lon="-2.677791">
    <ele>236.356</ele>
    <time>2012-11-11T10:58:03Z</time>
   </trkpt>
   <trkpt lat="51.251823" lon="-2.678340">
    <ele>237.552</ele>
    <time>2012-11-11T10:58:22Z</time>
   </trkpt>
   <trkpt lat="51.250962" lon="-2.678846">
    <ele>238.316</ele>
    <time>2012-11-11T10:58:38Z</time>
   </trkpt>
   <trkpt lat="51.250083" lon="-2.679346">
    <ele>240.424</ele>
    <time>2012-11-11T10:58:54Z</time>
   </trkpt>
   <trkpt lat="51.249206" lon="-2.679943">
    <ele>240.940</ele>
    <time>2012-11-11T10:59:10Z</time>
   </trkpt>
   <trkpt lat="51.248517" lon="-2.680885">
    <ele>238.919</ele>
    <time>2012-11-11T10:59:23Z</time>
   </trkpt>
   <trkpt lat="51.247814" lon="-2.681839">
    <ele>241.803</ele>
    <time>2012-11-11T10:59:37Z</time>
   </trkpt>
   <trkpt lat="51.246983" lon="-2.682534">
    <ele>244.591</ele>
    <time>2012-11-11T10:59:54Z</time>
   </trkpt>
   <trkpt lat="51.246138" lon="-2.683066">
    <ele>245.548</ele>
    <time>2012-11-11T11:00:09Z</time>
   </trkpt>
   <trkpt lat="51.245311" lon="-2.683770">
    <ele>250.684</ele>
    <time>2012-11-11T11:00:29Z</time>
   </trkpt>
   <trkpt lat="51.244539" lon="-2.684625">
    <ele>251.580</ele>
    <time>2012-11-11T11:00:48Z</time>
   </trkpt>
   <trkpt lat="51.243801" lon="-2.685549">
    <ele>250.928</ele>
    <time>2012-11-11T11:01:05Z</time>
   </trkpt>
   <trkpt lat="51.243045" lon="-2.686396">
    <ele>248.101</ele>
    <time>2012-11-11T11:03:31Z</time>
   </trkpt>
   <trkpt lat="51.242306" lon="-2.687266">
    <ele>245.955</ele>
    <time>2012-11-11T11:03:45Z</time>
   </trkpt>
   <trkpt lat="51.241549" lon="-2.688258">
    <ele>242.237</ele>
    <time>2012-11-11T11:03:59Z</time>
   </trkpt>
   <trkpt lat="51.240827" lon="-2.689310">
    <ele>238.799</ele>
    <time>2012-11-11T11:04:13Z</time>
   </trkpt>
   <trkpt lat="51.240313" lon="-2.690453">
    <ele>234.674</ele>
    <time>2012-11-11T11:04:30Z</time>
   </trkpt>
   <trkpt lat="51.239569" lon="-2.691173">
    <ele>225.687</ele>
    <time>2012-11-11T11:05:56Z</time>
   </trkpt>
   <trkpt lat="51.238747" lon="-2.691947">
    <ele>211.998</ele>
    <time>2012-11-11T11:06:38Z</time>
   </trkpt>
   <trkpt lat="51.237865" lon="-2.692386">
    <ele>209.504</ele>
    <time>2012-11-11T11:06:52Z</time>
   </trkpt>
   <trkpt lat="51.236944" lon="-2.692087">
    <ele>205.299</ele>
    <time>2012-11-11T11:07:06Z</time>
   </trkpt>
   <trkpt lat="51.236108" lon="-2.691606">
    <ele>198.717</ele>
    <time>2012-11-11T11:08:17Z</time>
   </trkpt>
   <trkpt lat="51.235264" lon="-2.690872">
    <ele>184.948</ele>
    <time>2012-11-11T11:08:29Z</time>
   </trkpt>
   <trkpt lat="51.234467" lon="-2.690108">
    <ele>171.613</ele>
    <time>2012-11-11T11:08:40Z</time>
   </trkpt>
   <trkpt lat="51.233769" lon="-2.689134">
    <ele>163.122</ele>
    <time>2012-11-11T11:08:51Z</time>
   </trkpt>
   <trkpt lat="51.233116" lon="-2.688012">
    <ele>155.773</ele>
    <time>2012-11-11T11:09:02Z</time>
   </trkpt>
   <trkpt lat="51.232438" lon="-2.686944">
    <ele>148.006</ele>
    <time>2012-11-11T11:09:14Z</time>
   </trkpt>
   <trkpt lat="51.231905" lon="-2.685767">
    <ele>142.229</ele>
    <time>2012-11-11T11:09:54Z</time>
   </trkpt>
   <trkpt lat="51.231304" lon="-2.684635">
    <ele>130.932</ele>
    <time>2012-11-11T11:10:07Z</time>
   </trkpt>
   <trkpt lat="51.230671" lon="-2.683584">
    <ele>113.084</ele>
    <time>2012-11-11T11:10:23Z</time>
   </trkpt>
   <trkpt lat="51.229919" lon="-2.682628">
    <ele>95.253</ele>
    <time>2012-11-11T11:10:38Z</time>
   </trkpt>
   <trkpt lat="51.229047" lon="-2.681911">
    <ele>88.532</ele>
    <time>2012-11-11T11:10:49Z</time>
   </trkpt>
   <trkpt lat="51.228259" lon="-2.681176">
    <ele>87.698</ele>
    <time>2012-11-11T11:11:02Z</time>
   </trkpt>
   <trkpt lat="51.227926" lon="-2.679817">
    <ele>78.532</ele>
    <time>2012-11-11T11:11:14Z</time>
   </trkpt>
   <trkpt lat="51.227643" lon="-2.678360">
    <ele>67.918</ele>
    <time>2012-11-11T11:11:27Z</time>
   </trkpt>
   <trkpt lat="51.227436" lon="-2.676896">
    <ele>54.870</ele>
    <time>2012-11-11T11:11:41Z</time>
   </trkpt>
   <trkpt lat="51.226945" lon="-2.675664">
    <ele>49.347</ele>
    <time>2012-11-11T11:11:54Z</time>
   </trkpt>
   <trkpt lat="51.226305" lon="-2.674621">
    <ele>49.374</ele>
    <time>2012-11-11T11:12:09Z</time>
   </trkpt>
   <trkpt lat="51.225446" lon="-2.673938">
    <ele>55.512</ele>
    <time>2012-11-11T11:12:35Z</time>
   </trkpt>
   <trkpt lat="51.224468" lon="-2.673716">
    <ele>47.063</ele>
    <time>2012-11-11T11:12:52Z</time>
   </trkpt>
   <trkpt lat="51.223542" lon="-2.673828">
    <ele>39.890</ele>
    <time>2012-11-11T11:13:05Z</time>
   </trkpt>
   <trkpt lat="51.222621" lon="-2.674102">
    <ele>35.150</ele>
    <time>2012-11-11T11:13:20Z</time>
   </trkpt>
   <trkpt lat="51.221714" lon="-2.674177">
    <ele>34.927</ele>
    <time>2012-11-11T11:13:36Z</time>
   </trkpt>
   <trkpt lat="51.220790" lon="-2.674342">
    <ele>32.787</ele>
    <time>2012-11-11T11:13:50Z</time>
   </trkpt>
   <trkpt lat="51.219874" lon="-2.674617">
    <ele>32.304</ele>
    <time>2012-11-11T11:14:04Z</time>
   </trkpt>
   <trkpt lat="51.219034" lon="-2.675200">
    <ele>40.924</ele>
    <time>2012-11-11T11:14:22Z</time>
   </trkpt>
   <trkpt lat="51.218165" lon="-2.675685">
    <ele>40.639</ele>
    <time>2012-11-11T11:14:42Z</time>
   </trkpt>
   <trkpt lat="51.217261" lon="-2.675827">
    <ele>32.638</ele>
    <time>2012-11-11T11:14:57Z</time>
   </trkpt>
   <trkpt lat="51.216355" lon="-2.676159">
    <ele>25.615</ele>
    <time>2012-11-11T11:15:12Z</time>
   </trkpt>
   <trkpt lat="51.215497" lon="-2.676821">
    <ele>27.511</ele>
    <time>2012-11-11T11:15:25Z</time>
   </trkpt>
   <trkpt lat="51.214596" lon="-2.677126">
    <ele>26.596</ele>
    <time>2012-11-11T11:17:05Z</time>
   </trkpt>
   <trkpt lat="51.213714" lon="-2.677569">
    <ele>23.946</ele>
    <time>2012-11-11T11:17:23Z</time>
   </trkpt>
   <trkpt lat="51.212944" lon="-2.678378">
    <ele>22.127</ele>
    <time>2012-11-11T11:17:39Z</time>
   </trkpt>
   <trkpt lat="51.212088" lon="-2.679124">
    <ele>22.294</ele>
    <time>2012-11-11T11:17:54Z</time>
   </trkpt>
   <trkpt lat="51.211346" lon="-2.680000">
    <ele>21.587</ele>
    <time>2012-11-11T11:18:08Z</time>
   </trkpt>
   <trkpt lat="51.210801" lon="-2.681221">
    <ele>20.218</ele>
    <time>2012-11-11T11:18:21Z</time>
   </trkpt>
   <trkpt lat="51.210364" lon="-2.682577">
    <ele>18.694</ele>
    <time>2012-11-11T11:18:34Z</time>
   </trkpt>
   <trkpt lat="51.210123" lon="-2.683964">
    <ele>18.359</ele>
    <time>2012-11-11T11:18:46Z</time>
   </trkpt>
   <trkpt lat="51.210189" lon="-2.685484">
    <ele>16.936</ele>
    <time>2012-11-11T11:18:59Z</time>
   </trkpt>
   <trkpt lat="51.210269" lon="-2.687028">
    <ele>15.841</ele>
    <time>2012-11-11T11:19:12Z</time>
   </trkpt>
   <trkpt lat="51.210289" lon="-2.688505">
    <ele>13.581</ele>
    <time>2012-11-11T11:19:25Z</time>
   </trkpt>
   <trkpt lat="51.210231" lon="-2.689983">
    <ele>12.482</ele>
    <time>2012-11-11T11:19:39Z</time>
   </trkpt>
   <trkpt lat="51.209772" lon="-2.691298">
    <ele>11.056</ele>
    <time>2012-11-11T11:19:52Z</time>
   </trkpt>
   <trkpt lat="51.209613" lon="-2.692719">
    <ele>11.012</ele>
    <time>2012-11-11T11:20:07Z</time>
   </trkpt>
   <trkpt lat="51.209499" lon="-2.693988">
    <ele>11.383</ele>
    <time>2012-11-11T11:20:54Z</time>
   </trkpt>
   <trkpt lat="51.208674" lon="-2.694708">
    <ele>6.950</ele>
    <time>2012-11-11T11:21:10Z</time>
   </trkpt>
   <trkpt lat="51.207827" lon="-2.694233">
    <ele>7.498</ele>
    <time>2012-11-11T11:21:23Z</time>
   </trkpt>
   <trkpt lat="51.206921" lon="-2.693594">
    <ele>10.719</ele>
    <time>2012-11-11T11:21:39Z</time>
   </trkpt>
   <trkpt lat="51.206272" lon="-2.694164">
    <ele>11.472</ele>
    <time>2012-11-11T11:22:01Z</time>
   </trkpt>
   <trkpt lat="51.205790" lon="-2.695465">
    <ele>9.669</ele>
    <time>2012-11-11T11:22:15Z</time>
   </trkpt>
   <trkpt lat="51.205226" lon="-2.696602">
    <ele>11.276</ele>
    <time>2012-11-11T11:22:44Z</time>
   </trkpt>
   <trkpt lat="51.204499" lon="-2.697560">
    <ele>11.406</ele>
    <time>2012-11-11T11:23:01Z</time>
   </trkpt>
   <trkpt lat="51.203802" lon="-2.698598">
    <ele>11.164</ele>
    <time>2012-11-11T11:23:15Z</time>
   </trkpt>
   <trkpt lat="51.203122" lon="-2.699618">
    <ele>14.141</ele>
    <time>2012-11-11T11:23:30Z</time>
   </trkpt>
   <trkpt lat="51.202408" lon="-2.700535">
    <ele>18.700</ele>
    <time>2012-11-11T11:23:47Z</time>
   </trkpt>
   <trkpt lat="51.201676" lon="-2.701401">
    <ele>17.793</ele>
    <time>2012-11-11T11:24:02Z</time>
   </trkpt>
   <trkpt lat="51.200808" lon="-2.700971">
    <ele>7.233</ele>
    <time>2012-11-11T11:24:16Z</time>
   </trkpt>
   <trkpt lat="51.199896" lon="-2.700519">
    <ele>0.727</ele>
    <time>2012-11-11T11:24:27Z</time>
   </trkpt>
   <trkpt lat="51.199040" lon="-2.700308">
    <ele>0.876</ele>
    <time>2012-11-11T11:24:45Z</time>
   </trkpt>
   <trkpt lat="51.198179" lon="-2.700767">
    <ele>-0.455</ele>
    <time>2012-11-11T11:24:59Z</time>
   </trkpt>
   <trkpt lat="51.197416" lon="-2.701590">
    <ele>-1.502</ele>
    <time>2012-11-11T11:25:12Z</time>
   </trkpt>
   <trkpt lat="51.196734" lon="-2.702582">
    <ele>-1.004</ele>
    <time>2012-11-11T11:25:25Z</time>
   </trkpt>
   <trkpt lat="51.195946" lon="-2.703307">
    <ele>-1.236</ele>
    <time>2012-11-11T11:25:38Z</time>
   </trkpt>
   <trkpt lat="51.195276" lon="-2.704297">
    <ele>0.201</ele>
    <time>2012-11-11T11:25:51Z</time>
   </trkpt>
   <trkpt lat="51.194473" lon="-2.704336">
    <ele>3.027</ele>
    <time>2012-11-11T11:26:07Z</time>
   </trkpt>
   <trkpt lat="51.193635" lon="-2.704769">
    <ele>-0.777</ele>
    
<time>2012-11-11T11:26:26Z</time>
   </trkpt>
   <trkpt lat="51.192727" lon="-2.705179">
    <ele>-2.187</ele>
    <time>2012-11-11T11:26:41Z</time>
   </trkpt>
   <trkpt lat="51.191982" lon="-2.705235">
    <ele>0.279</ele>

<time>2012-11-11T11:53:37Z</time>
   </trkpt>
   <trkpt lat="51.191075" lon="-2.707091">
    <ele>14.656</ele>
    <time>2012-11-11T11:53:53Z</time>
   </trkpt>
   <trkpt lat="51.190464" lon="-2.708160">
    <ele>14.980</ele>
    <time>2012-11-11T11:54:08Z</time>
   </trkpt>
   <trkpt lat="51.190133" lon="-2.709534">
    <ele>14.200</ele>
    <time>2012-11-11T11:54:23Z</time>
   </trkpt>
   <trkpt lat="51.189950" lon="-2.710985">
    <ele>14.967</ele>
    <time>2012-11-11T11:54:43Z</time>
   </trkpt>
   <trkpt lat="51.189987" lon="-2.712451">
    <ele>13.299</ele>
    <time>2012-11-11T11:55:01Z</time>
   </trkpt>
   <trkpt lat="51.190026" lon="-2.713901">
    <ele>12.478</ele>
    <time>2012-11-11T11:55:16Z</time>
   </trkpt>
   <trkpt lat="51.190302" lon="-2.715274">
    <ele>12.114</ele>
    <time>2012-11-11T11:55:31Z</time>
   </trkpt>
   <trkpt lat="51.190737" lon="-2.716540">
    <ele>11.832</ele>
    <time>2012-11-11T11:55:48Z</time>
   </trkpt>
   <trkpt lat="51.191237" lon="-2.717821">
    <ele>11.870</ele>
    <time>2012-11-11T11:56:05Z</time>
   </trkpt>
   <trkpt lat="51.191721" lon="-2.719029">
    <ele>10.884</ele>
    <time>2012-11-11T11:56:20Z</time>
   </trkpt>
   <trkpt lat="51.192196" lon="-2.720301">
    <ele>11.188</ele>
    <time>2012-11-11T11:56:35Z</time>
   </trkpt>
   <trkpt lat="51.192748" lon="-2.721468">
    <ele>11.085</ele>
    <time>2012-11-11T11:56:51Z</time>
   </trkpt>
   <trkpt lat="51.193349" lon="-2.722557">
    <ele>11.766</ele>
    <time>2012-11-11T11:57:06Z</time>
   </trkpt>
   <trkpt lat="51.194113" lon="-2.723357">
    <ele>10.880</ele>
    <time>2012-11-11T11:57:22Z</time>
   </trkpt>
   <trkpt lat="51.194799" lon="-2.724256">
    <ele>10.327</ele>
    <time>2012-11-11T11:57:37Z</time>
   </trkpt>
   <trkpt lat="51.194891" lon="-2.725600">
    <ele>10.977</ele>
    <time>2012-11-11T11:57:52Z</time>
   </trkpt>
   <trkpt lat="51.194595" lon="-2.726994">
    <ele>10.751</ele>
    <time>2012-11-11T11:58:08Z</time>
   </trkpt>
   <trkpt lat="51.194912" lon="-2.728315">
    <ele>8.960</ele>
    <time>2012-11-11T11:58:25Z</time>
   </trkpt>
   <trkpt lat="51.195639" lon="-2.728782">
    <ele>9.751</ele>
    <time>2012-11-11T11:58:44Z</time>
   </trkpt>
   <trkpt lat="51.196563" lon="-2.728452">
    <ele>8.474</ele>
    <time>2012-11-11T11:59:00Z</time>
   </trkpt>
   <trkpt lat="51.197476" lon="-2.728141">
    <ele>8.424</ele>
    <time>2012-11-11T11:59:15Z</time>
   </trkpt>
   <trkpt lat="51.198243" lon="-2.728560">
    <ele>8.149</ele>
    <time>2012-11-11T11:59:32Z</time>
   </trkpt>
   <trkpt lat="51.198737" lon="-2.729821">
    <ele>7.499</ele>
    <time>2012-11-11T11:59:47Z</time>
   </trkpt>
   <trkpt lat="51.199232" lon="-2.731071">
    <ele>7.125</ele>
    <time>2012-11-11T12:00:01Z</time>
   </trkpt>
   <trkpt lat="51.199976" lon="-2.731803">
    <ele>7.460</ele>
    <time>2012-11-11T12:00:16Z</time>
   </trkpt>
   <trkpt lat="51.200486" lon="-2.732985">
    <ele>7.325</ele>
    <time>2012-11-11T12:00:33Z</time>
   </trkpt>
   <trkpt lat="51.200845" lon="-2.734344">
    <ele>7.413</ele>
    <time>2012-11-11T12:00:47Z</time>
   </trkpt>
   <trkpt lat="51.201187" lon="-2.735713">
    <ele>7.376</ele>
    <time>2012-11-11T12:01:01Z</time>
   </trkpt>
   <trkpt lat="51.201531" lon="-2.737038">
    <ele>7.111</ele>
    <time>2012-11-11T12:01:15Z</time>
   </trkpt>
   <trkpt lat="51.201929" lon="-2.738431">
    <ele>8.586</ele>
    <time>2012-11-11T12:01:31Z</time>
   </trkpt>
   <trkpt lat="51.202697" lon="-2.738657">
    <ele>8.972</ele>
    <time>2012-11-11T12:01:49Z</time>
   </trkpt>
   <trkpt lat="51.203575" lon="-2.738307">
    <ele>11.440</ele>
    <time>2012-11-11T12:02:06Z</time>
   </trkpt>
   <trkpt lat="51.204444" lon="-2.737901">
    <ele>15.767</ele>
    <time>2012-11-11T12:02:24Z</time>
   </trkpt>
   <trkpt lat="51.205060" lon="-2.738562">
    <ele>14.478</ele>
    <time>2012-11-11T12:02:45Z</time>
   </trkpt>
   <trkpt lat="51.205022" lon="-2.740033">
    <ele>16.767</ele>
    <time>2012-11-11T12:03:01Z</time>
   </trkpt>
   <trkpt lat="51.205046" lon="-2.741493">
    <ele>15.712</ele>
    <time>2012-11-11T12:03:17Z</time>
   </trkpt>
   <trkpt lat="51.205568" lon="-2.742560">
    <ele>8.024</ele>
    <time>2012-11-11T12:03:28Z</time>
   </trkpt>
   <trkpt lat="51.205605" lon="-2.744149">
    <ele>6.623</ele>
    <time>2012-11-11T12:03:41Z</time>
   </trkpt>
   <trkpt lat="51.205543" lon="-2.745616">
    <ele>6.465</ele>
    <time>2012-11-11T12:03:53Z</time>
   </trkpt>
   <trkpt lat="51.205669" lon="-2.747061">
    <ele>5.883</ele>
    <time>2012-11-11T12:04:05Z</time>
   </trkpt>
   <trkpt lat="51.205813" lon="-2.748578">
    <ele>5.717</ele>
    <time>2012-11-11T12:04:18Z</time>
   </trkpt>
   <trkpt lat="51.206114" lon="-2.749991">
    <ele>6.351</ele>
    <time>2012-11-11T12:04:31Z</time>
   </trkpt>
   <trkpt lat="51.206737" lon="-2.751003">
    <ele>8.136</ele>
    <time>2012-11-11T12:06:37Z</time>
   </trkpt>
   <trkpt lat="51.207265" lon="-2.752183">
    <ele>6.266</ele>
    <time>2012-11-11T12:06:55Z</time>
   </trkpt>
   <trkpt lat="51.207140" lon="-2.753626">
    <ele>5.846</ele>
    <time>2012-11-11T12:07:09Z</time>
   </trkpt>
   <trkpt lat="51.206792" lon="-2.754947">
    <ele>5.984</ele>
    <time>2012-11-11T12:07:23Z</time>
   </trkpt>
   <trkpt lat="51.206793" lon="-2.756404">
    <ele>4.466</ele>
    <time>2012-11-11T12:07:37Z</time>
   </trkpt>
   <trkpt lat="51.206908" lon="-2.757805">
    <ele>8.149</ele>
    <time>2012-11-11T12:07:52Z</time>
   </trkpt>
   <trkpt lat="51.207601" lon="-2.758713">
    <ele>16.428</ele>
    <time>2012-11-11T12:08:18Z</time>
   </trkpt>
   <trkpt lat="51.208415" lon="-2.759354">
    <ele>17.999</ele>
    <time>2012-11-11T12:08:42Z</time>
   </trkpt>
   <trkpt lat="51.209195" lon="-2.760228">
    <ele>14.168</ele>
    <time>2012-11-11T12:08:58Z</time>
   </trkpt>
   <trkpt lat="51.209857" lon="-2.761216">
    <ele>15.113</ele>
    <time>2012-11-11T12:10:44Z</time>
   </trkpt>
   <trkpt lat="51.210465" lon="-2.762340">
    <ele>16.777</ele>
    <time>2012-11-11T12:11:02Z</time>
   </trkpt>
   <trkpt lat="51.211114" lon="-2.763323">
    <ele>24.153</ele>
    <time>2012-11-11T12:11:26Z</time>
   </trkpt>
   <trkpt lat="51.211833" lon="-2.764239">
    <ele>18.279</ele>
    <time>2012-11-11T12:11:43Z</time>
   </trkpt>
   <trkpt lat="51.212431" lon="-2.765481">
    <ele>15.403</ele>
    <time>2012-11-11T12:11:58Z</time>
   </trkpt>
   <trkpt lat="51.212667" lon="-2.766943">
    <ele>12.843</ele>
    <time>2012-11-11T12:12:11Z</time>
   </trkpt>
   <trkpt lat="51.212871" lon="-2.768348">
    <ele>13.216</ele>
    <time>2012-11-11T12:12:24Z</time>
   </trkpt>
   <trkpt lat="51.213009" lon="-2.769797">
    <ele>17.028</ele>
    <time>2012-11-11T12:12:41Z</time>
   </trkpt>
   <trkpt lat="51.213225" lon="-2.771195">
    <ele>14.300</ele>
    <time>2012-11-11T12:12:58Z</time>
   </trkpt>
   <trkpt lat="51.213299" lon="-2.771565">
    <ele>12.176</ele>
    <time>2012-11-11T12:14:52Z</time>
   </trkpt>
   <trkpt lat="51.213075" lon="-2.770109">
    <ele>16.762</ele>
    <time>2012-11-11T12:15:12Z</time>
   </trkpt>
   <trkpt lat="51.212225" lon="-2.770311">
    <ele>27.224</ele>
    <time>2012-11-11T12:16:09Z</time>
   </trkpt>
   <trkpt lat="51.211276" lon="-2.770548">
    <ele>46.524</ele>
    <time>2012-11-11T12:17:42Z</time>
   </trkpt>
   <trkpt lat="51.210771" lon="-2.771306">
    <ele>47.621</ele>
    <time>2012-11-11T12:18:15Z</time>
   </trkpt>
   <trkpt lat="51.210641" lon="-2.772746">
    <ele>49.944</ele>
    <time>2012-11-11T12:18:37Z</time>
   </trkpt>
   <trkpt lat="51.210656" lon="-2.774210">
    <ele>53.610</ele>
    <time>2012-11-11T12:18:58Z</time>
   </trkpt>
   <trkpt lat="51.210723" lon="-2.775710">
    <ele>57.320</ele>
    <time>2012-11-11T12:19:20Z</time>
   </trkpt>
   <trkpt lat="51.211148" lon="-2.776955">
    <ele>62.971</ele>
    <time>2012-11-11T12:19:42Z</time>
   </trkpt>
   <trkpt lat="51.211340" lon="-2.778349">
    <ele>66.564</ele>
    <time>2012-11-11T12:20:05Z</time>
   </trkpt>
   <trkpt lat="51.211038" lon="-2.779689">
    <ele>69.573</ele>
    <time>2012-11-11T12:20:27Z</time>
   </trkpt>
   <trkpt lat="51.210607" lon="-2.780964">
    <ele>68.301</ele>
    <time>2012-11-11T12:20:45Z</time>
   </trkpt>
   <trkpt lat="51.210874" lon="-2.782335">
    <ele>69.362</ele>
    <time>2012-11-11T12:21:03Z</time>
   </trkpt>
   <trkpt lat="51.210931" lon="-2.783821">
    <ele>69.137</ele>
    <time>2012-11-11T12:21:22Z</time>
   </trkpt>
   <trkpt lat="51.210809" lon="-2.785365">
    <ele>64.316</ele>
    <time>2012-11-11T12:21:37Z</time>
   </trkpt>
   <trkpt lat="51.210365" lon="-2.786623">
    <ele>62.781</ele>
    <time>2012-11-11T12:21:50Z</time>
   </trkpt>
   <trkpt lat="51.210167" lon="-2.788013">
    <ele>68.358</ele>
    <time>2012-11-11T12:22:09Z</time>
   </trkpt>
   <trkpt lat="51.210256" lon="-2.789419">
    <ele>68.067</ele>
    <time>2012-11-11T12:22:28Z</time>
   </trkpt>
   <trkpt lat="51.210720" lon="-2.790647">
    <ele>68.150</ele>
    <time>2012-11-11T12:24:09Z</time>
   </trkpt>
   <trkpt lat="51.211049" lon="-2.792065">
    <ele>65.958</ele>
    <time>2012-11-11T12:24:26Z</time>
   </trkpt>
   <trkpt lat="51.211317" lon="-2.793534">
    <ele>57.125</ele>
    <time>2012-11-11T12:24:38Z</time>
   </trkpt>
   <trkpt lat="51.211500" lon="-2.794967">
    <ele>57.580</ele>
    <time>2012-11-11T12:24:51Z</time>
   </trkpt>
   <trkpt lat="51.211609" lon="-2.796412">
    <ele>58.490</ele>
    <time>2012-11-11T12:25:07Z</time>
   </trkpt>
   <trkpt lat="51.211554" lon="-2.797834">
    <ele>55.664</ele>
    <time>2012-11-11T12:25:31Z</time>
   </trkpt>
   <trkpt lat="51.212008" lon="-2.799120">
    <ele>51.678</ele>
    <time>2012-11-11T12:25:48Z</time>
   </trkpt>
   <trkpt lat="51.212830" lon="-2.799856">
    <ele>52.544</ele>
    <time>2012-11-11T12:26:04Z</time>
   </trkpt>
   <trkpt lat="51.213360" lon="-2.801063">
    <ele>51.644</ele>
    <time>2012-11-11T12:26:19Z</time>
   </trkpt>
   <trkpt lat="51.213992" lon="-2.802179">
    <ele>52.066</ele>
    <time>2012-11-11T12:26:36Z</time>
   </trkpt>
   <trkpt lat="51.214548" lon="-2.803422">
    <ele>52.691</ele>
    <time>2012-11-11T12:26:53Z</time>
   </trkpt>
   <trkpt lat="51.214545" lon="-2.804895">
    <ele>52.204</ele>
    <time>2012-11-11T12:27:09Z</time>
   </trkpt>
   <trkpt lat="51.214336" lon="-2.806339">
    <ele>51.882</ele>
    <time>2012-11-11T12:27:27Z</time>
   </trkpt>
   <trkpt lat="51.214737" lon="-2.807527">
    <ele>51.410</ele>
    <time>2012-11-11T12:27:43Z</time>
   </trkpt>
   <trkpt lat="51.215292" lon="-2.808681">
    <ele>52.279</ele>
    <time>2012-11-11T12:28:00Z</time>
   </trkpt>
   <trkpt lat="51.215730" lon="-2.809967">
    <ele>54.461</ele>
    <time>2012-11-11T12:28:31Z</time>
   </trkpt>
   <trkpt lat="51.216198" lon="-2.811219">
    <ele>56.078</ele>
    <time>2012-11-11T12:28:50Z</time>
   </trkpt>
   <trkpt lat="51.216187" lon="-2.812566">
    <ele>57.500</ele>
    <time>2012-11-11T12:29:08Z</time>
   </trkpt>
   <trkpt lat="51.215797" lon="-2.813829">
    <ele>53.440</ele>
    <time>2012-11-11T12:30:01Z</time>
   </trkpt>
   <trkpt lat="51.215538" lon="-2.815287">
    <ele>50.253</ele>
    <time>2012-11-11T12:30:15Z</time>
   </trkpt>
   <trkpt lat="51.215267" lon="-2.816691">
    <ele>46.265</ele>
    <time>2012-11-11T12:30:29Z</time>
   </trkpt>
   <trkpt lat="51.215062" lon="-2.818158">
    <ele>44.273</ele>
    <time>2012-11-11T12:30:42Z</time>
   </trkpt>
   <trkpt lat="51.215014" lon="-2.819671">
    <ele>46.403</ele>
    <time>2012-11-11T12:30:56Z</time>
   </trkpt>
   <trkpt lat="51.215085" lon="-2.821160">
    <ele>44.466</ele>
    <time>2012-11-11T12:31:12Z</time>
   </trkpt>
   <trkpt lat="51.215484" lon="-2.822445">
    <ele>41.626</ele>
    <time>2012-11-11T12:31:26Z</time>
   </trkpt>
   <trkpt lat="51.216007" lon="-2.823634">
    <ele>39.985</ele>
    <time>2012-11-11T12:31:40Z</time>
   </trkpt>
   <trkpt lat="51.216392" lon="-2.825003">
    <ele>38.700</ele>
    <time>2012-11-11T12:31:55Z</time>
   </trkpt>
   <trkpt lat="51.216619" lon="-2.826389">
    <ele>36.614</ele>
    <time>2012-11-11T12:32:09Z</time>
   </trkpt>
   <trkpt lat="51.216913" lon="-2.827810">
    <ele>35.092</ele>
    <time>2012-11-11T12:34:30Z</time>
   </trkpt>
   <trkpt lat="51.217213" lon="-2.829254">
    <ele>32.582</ele>
    <time>2012-11-11T12:34:45Z</time>
   </trkpt>
   <trkpt lat="51.217499" lon="-2.830718">
    <ele>30.999</ele>
    <time>2012-11-11T12:35:00Z</time>
   </trkpt>
   <trkpt lat="51.217803" lon="-2.832076">
    <ele>29.516</ele>
    <time>2012-11-11T12:35:23Z</time>
   </trkpt>
   <trkpt lat="51.218100" lon="-2.833443">
    <ele>27.479</ele>
    <time>2012-11-11T12:35:40Z</time>
   </trkpt>
   <trkpt lat="51.218451" lon="-2.834760">
    <ele>26.001</ele>
    <time>2012-11-11T12:35:55Z</time>
   </trkpt>
   <trkpt lat="51.218997" lon="-2.836005">
    <ele>24.122</ele>
    <time>2012-11-11T12:37:49Z</time>
   </trkpt>
   <trkpt lat="51.219676" lon="-2.837008">
    <ele>22.192</ele>
    <time>2012-11-11T12:38:04Z</time>
   </trkpt>
   <trkpt lat="51.220352" lon="-2.838025">
    <ele>20.599</ele>
    <time>2012-11-11T12:38:19Z</time>
   </trkpt>
   <trkpt lat="51.220957" lon="-2.839108">
    <ele>19.793</ele>
    <time>2012-11-11T12:38:35Z</time>
   </trkpt>
   <trkpt lat="51.221614" lon="-2.840155">
    <ele>17.590</ele>
    <time>2012-11-11T12:38:50Z</time>
   </trkpt>
   <trkpt lat="51.222313" lon="-2.841112">
    <ele>16.393</ele>
    <time>2012-11-11T12:39:05Z</time>
   </trkpt>
   <trkpt lat="51.223182" lon="-2.841606">
    <ele>15.611</ele>
    <time>2012-11-11T12:39:21Z</time>
   </trkpt>
   <trkpt lat="51.224004" lon="-2.841752">
    <ele>13.906</ele>
    <time>2012-11-11T12:40:12Z</time>
   </trkpt>
   <trkpt lat="51.224936" lon="-2.841817">
    <ele>9.406</ele>
    <time>2012-11-11T12:40:29Z</time>
   </trkpt>
   <trkpt lat="51.225589" lon="-2.842597">
    <ele>7.861</ele>
    <time>2012-11-11T12:40:48Z</time>
   </trkpt>
   <trkpt lat="51.226510" lon="-2.842687">
    <ele>11.479</ele>
    <time>2012-11-11T12:41:09Z</time>
   </trkpt>
   <trkpt lat="51.227136" lon="-2.841687">
    <ele>15.266</ele>
    <time>2012-11-11T12:41:39Z</time>
   </trkpt>
   <trkpt lat="51.228014" lon="-2.841992">
    <ele>17.041</ele>
    <time>2012-11-11T12:42:01Z</time>
   </trkpt>
   <trkpt lat="51.228939" lon="-2.841904">
    <ele>18.438</ele>
    <time>2012-11-11T12:42:21Z</time>
   </trkpt>
   <trkpt lat="51.229852" lon="-2.841528">
    <ele>19.027</ele>
    <time>2012-11-11T12:42:39Z</time>
   </trkpt>
   <trkpt lat="51.230740" lon="-2.841079">
    <ele>20.030</ele>
    <time>2012-11-11T12:42:56Z</time>
   </trkpt>
   <trkpt lat="51.231638" lon="-2.840609">
    <ele>20.957</ele>
    <time>2012-11-11T12:43:13Z</time>
   </trkpt>
   <trkpt lat="51.232470" lon="-2.839990">
    <ele>21.911</ele>
    <time>2012-11-11T12:43:30Z</time>
   </trkpt>
   <trkpt lat="51.233348" lon="-2.839446">
    <ele>22.968</ele>
    <time>2012-11-11T12:43:47Z</time>
   </trkpt>
   <trkpt lat="51.234275" lon="-2.839261">
    <ele>23.559</ele>
    <time>2012-11-11T12:44:05Z</time>
   </trkpt>
   <trkpt lat="51.235082" lon="-2.838506">
    <ele>24.740</ele>
    <time>2012-11-11T12:44:22Z</time>
   </trkpt>
   <trkpt lat="51.235760" lon="-2.837578">
    <ele>26.768</ele>
    <time>2012-11-11T12:44:39Z</time>
   </trkpt>
   <trkpt lat="51.236582" lon="-2.836851">
    <ele>27.876</ele>
    <time>2012-11-11T12:44:56Z</time>
   </trkpt>
   <trkpt lat="51.237423" lon="-2.836255">
    <ele>31.036</ele>
    <time>2012-11-11T12:45:17Z</time>
   </trkpt>
   <trkpt lat="51.238299" lon="-2.835840">
    <ele>31.116</ele>
    <time>2012-11-11T12:45:44Z</time>
   </trkpt>
   <trkpt lat="51.239132" lon="-2.835129">
    <ele>32.750</ele>
    <time>2012-11-11T12:46:01Z</time>
   </trkpt>
   <trkpt lat="51.239927" lon="-2.834332">
    <ele>33.048</ele>
    <time>2012-11-11T12:46:18Z</time>
   </trkpt>
   <trkpt lat="51.240642" lon="-2.833444">
    <ele>34.038</ele>
    <time>2012-11-11T12:46:34Z</time>
   </trkpt>
   <trkpt lat="51.240798" lon="-2.832082">
    <ele>36.265</ele>
    <time>2012-11-11T12:46:52Z</time>
   </trkpt>
   <trkpt lat="51.240901" lon="-2.830611">
    <ele>35.218</ele>
    <time>2012-11-11T12:47:10Z</time>
   </trkpt>
   <trkpt lat="51.241405" lon="-2.829359">
    <ele>30.519</ele>
    <time>2012-11-11T12:47:25Z</time>
   </trkpt>
   <trkpt lat="51.240906" lon="-2.830508">
    <ele>35.056</ele>
    <time>2012-11-11T12:47:56Z</time>
   </trkpt>
   <trkpt lat="51.240780" lon="-2.831982">
    <ele>34.822</ele>
    <time>2012-11-11T12:48:15Z</time>
   </trkpt>
   <trkpt lat="51.240669" lon="-2.833381">
    <ele>34.515</ele>
    <time>2012-11-11T12:48:31Z</time>
   </trkpt>
   <trkpt lat="51.239967" lon="-2.834292">
    <ele>32.948</ele>
    <time>2012-11-11T12:48:45Z</time>
   </trkpt>
   <trkpt lat="51.239174" lon="-2.835020">
    <ele>31.987</ele>
    <time>2012-11-11T12:48:59Z</time>
   </trkpt>
   <trkpt lat="51.238361" lon="-2.835785">
    <ele>31.956</ele>
    <time>2012-11-11T12:49:14Z</time>
   </trkpt>
   <trkpt lat="51.237459" lon="-2.836208">
    <ele>30.486</ele>
    <time>2012-11-11T12:49:32Z</time>
   </trkpt>
   <trkpt lat="51.237903" lon="-2.837222">
    <ele>27.958</ele>
    <time>2012-11-11T12:49:51Z</time>
   </trkpt>
   <trkpt lat="51.238613" lon="-2.838205">
    <ele>26.812</ele>
    <time>2012-11-11T12:50:05Z</time>
   </trkpt>
   <trkpt lat="51.239395" lon="-2.839050">
    <ele>23.151</ele>
    <time>2012-11-11T12:50:19Z</time>
   </trkpt>
   <trkpt lat="51.240260" lon="-2.839707">
    <ele>16.036</ele>
    <time>2012-11-11T12:53:36Z</time>
   </trkpt>
   <trkpt lat="51.241189" lon="-2.840051">
    <ele>13.317</ele>
    <time>2012-11-11T12:53:50Z</time>
   </trkpt>
   <trkpt lat="51.241985" lon="-2.840841">
    <ele>10.913</ele>
    <time>2012-11-11T12:54:04Z</time>
   </trkpt>
   <trkpt lat="51.242784" lon="-2.841571">
    <ele>17.186</ele>
    <time>2012-11-11T12:54:23Z</time>
   </trkpt>
   <trkpt lat="51.243624" lon="-2.842191">
    <ele>21.317</ele>
    <time>2012-11-11T12:54:46Z</time>
   </trkpt>
   <trkpt lat="51.244524" lon="-2.842477">
    <ele>26.008</ele>
    <time>2012-11-11T12:55:11Z</time>
   </trkpt>
   <trkpt lat="51.245231" lon="-2.841517">
    <ele>28.408</ele>
    <time>2012-11-11T12:55:34Z</time>
   </trkpt>
   <trkpt lat="51.246137" lon="-2.841416">
    <ele>28.776</ele>
    <time>2012-11-11T12:55:53Z</time>
   </trkpt>
   <trkpt lat="51.246988" lon="-2.841996">
    <ele>30.363</ele>
    <time>2012-11-11T12:56:24Z</time>
   </trkpt>
   <trkpt lat="51.247820" lon="-2.842630">
    <ele>34.111</ele>
    <time>2012-11-11T12:56:49Z</time>
   </trkpt>
   <trkpt lat="51.248717" lon="-2.843045">
    <ele>30.974</ele>
    <time>2012-11-11T12:58:29Z</time>
   </trkpt>
   <trkpt lat="51.249559" lon="-2.843589">
    <ele>28.650</ele>
    <time>2012-11-11T12:58:48Z</time>
   </trkpt>
   <trkpt lat="51.250402" lon="-2.844473">
    <ele>23.642</ele>
    <time>2012-11-11T12:59:03Z</time>
   </trkpt>
   <trkpt lat="51.250938" lon="-2.845631">
    <ele>19.591</ele>
    <time>2012-11-11T12:59:19Z</time>
   </trkpt>
   <trkpt lat="51.251709" lon="-2.846410">
    <ele>26.934</ele>
    <time>2012-11-11T12:59:41Z</time>
   </trkpt>
   <trkpt lat="51.252503" lon="-2.847115">
    <ele>27.959</ele>
    <time>2012-11-11T13:00:04Z</time>
   </trkpt>
   <trkpt lat="51.253290" lon="-2.847950">
    <ele>24.700</ele>
    <time>2012-11-11T13:00:21Z</time>
   </trkpt>
   <trkpt lat="51.254167" lon="-2.848102">
    <ele>28.106</ele>
    <time>2012-11-11T13:00:39Z</time>
   </trkpt>
   <trkpt lat="51.254961" lon="-2.848021">
    <ele>30.269</ele>
    <time>2012-11-11T13:01:03Z</time>
   </trkpt>
   <trkpt lat="51.255460" lon="-2.849234">
    <ele>29.139</ele>
    <time>2012-11-11T13:01:20Z</time>
   </trkpt>
   <trkpt lat="51.256231" lon="-2.850064">
    <ele>30.026</ele>
    <time>2012-11-11T13:01:37Z</time>
   </trkpt>
   <trkpt lat="51.257117" lon="-2.850340">
    <ele>31.166</ele>
    <time>2012-11-11T13:01:54Z</time>
   </trkpt>
   <trkpt lat="51.257982" lon="-2.850326">
    <ele>35.676</ele>
    <time>2012-11-11T13:02:16Z</time>
   </trkpt>
   <trkpt lat="51.258806" lon="-2.850883">
    <ele>40.815</ele>
    <time>2012-11-11T13:02:41Z</time>
   </trkpt>
   <trkpt lat="51.259682" lon="-2.851456">
    <ele>44.770</ele>
    <time>2012-11-11T13:04:40Z</time>
   </trkpt>
   <trkpt lat="51.260511" lon="-2.852072">
    <ele>45.647</ele>
    <time>2012-11-11T13:05:03Z</time>
   </trkpt>
   <trkpt lat="51.261387" lon="-2.852442">
    <ele>44.110</ele>
    <time>2012-11-11T13:05:20Z</time>
   </trkpt>
   <trkpt lat="51.262346" lon="-2.852717">
    <ele>44.695</ele>
    <time>2012-11-11T13:05:37Z</time>
   </trkpt>
   <trkpt lat="51.263276" lon="-2.852836">
    <ele>48.007</ele>
    <time>2012-11-11T13:05:57Z</time>
   </trkpt>
   <trkpt lat="51.264199" lon="-2.852724">
    <ele>50.001</ele>
    <time>2012-11-11T13:06:18Z</time>
   </trkpt>
   <trkpt lat="51.265145" lon="-2.852645">
    <ele>46.861</ele>
    <time>2012-11-11T13:06:36Z</time>
   </trkpt>
   <trkpt lat="51.266213" lon="-2.852674">
    <ele>45.570</ele>
    <time>2012-11-11T13:06:54Z</time>
   </trkpt>
   <trkpt lat="51.267109" lon="-2.852396">
    <ele>46.475</ele>
    <time>2012-11-11T13:07:10Z</time>
   </trkpt>
   <trkpt lat="51.268025" lon="-2.852170">
    <ele>41.467</ele>
    <time>2012-11-11T13:07:24Z</time>
   </trkpt>
   <trkpt lat="51.268952" lon="-2.851993">
    <ele>30.850</ele>
    <time>2012-11-11T13:07:35Z</time>
   </trkpt>
   <trkpt lat="51.269904" lon="-2.851588">
    <ele>18.423</ele>
    <time>2012-11-11T13:07:46Z</time>
   </trkpt>
   <trkpt lat="51.270978" lon="-2.850864">
    <ele>5.547</ele>
    <time>2012-11-11T13:07:55Z</time>
   </trkpt>
   <trkpt lat="51.271934" lon="-2.850384">
    <ele>0.366</ele>
    <time>2012-11-11T13:08:04Z</time>
   </trkpt>
   <trkpt lat="51.272807" lon="-2.850025">
    <ele>0.848</ele>
    <time>2012-11-11T13:08:14Z</time>
   </trkpt>
   <trkpt lat="51.273614" lon="-2.850354">
    <ele>1.556</ele>
    <time>2012-11-11T13:08:27Z</time>
   </trkpt>
   <trkpt lat="51.274531" lon="-2.850690">
    <ele>0.332</ele>
    <time>2012-11-11T13:08:41Z</time>
   </trkpt>
   <trkpt lat="51.275471" lon="-2.850715">
    <ele>0.624</ele>
    <time>2012-11-11T13:08:55Z</time>
   </trkpt>
   <trkpt lat="51.276397" lon="-2.851009">
    <ele>0.312</ele>
    <time>2012-11-11T13:09:10Z</time>
   </trkpt>
   <trkpt lat="51.277197" lon="-2.851695">
    <ele>-0.199</ele>
    <time>2012-11-11T13:09:25Z</time>
   </trkpt>
   <trkpt lat="51.277998" lon="-2.852527">
    <ele>0.387</ele>
    <time>2012-11-11T13:09:41Z</time>
   </trkpt>
   <trkpt lat="51.278783" lon="-2.853301">
    <ele>1.986</ele>
    <time>2012-11-11T13:09:58Z</time>
   </trkpt>
   <trkpt lat="51.279317" lon="-2.852351">
    <ele>2.868</ele>
    <time>2012-11-11T13:10:43Z</time>
   </trkpt>
   <trkpt lat="51.279813" lon="-2.851092">
    <ele>1.969</ele>
    <time>2012-11-11T13:10:59Z</time>
   </trkpt>
   <trkpt lat="51.280387" lon="-2.849988">
    <ele>2.074</ele>
    <time>2012-11-11T13:11:13Z</time>
   </trkpt>
   <trkpt lat="51.281177" lon="-2.849370">
    <ele>1.715</ele>
    <time>2012-11-11T13:11:29Z</time>
   </trkpt>
   <trkpt lat="51.282041" lon="-2.848806">
    <ele>1.275</ele>
    <time>2012-11-11T13:11:44Z</time>
   </trkpt>
   <trkpt lat="51.282906" lon="-2.848165">
    <ele>1.987</ele>
    <time>2012-11-11T13:11:59Z</time>
   </trkpt>
   <trkpt lat="51.283723" lon="-2.847554">
    <ele>1.597</ele>
    <time>2012-11-11T13:12:14Z</time>
   </trkpt>
   <trkpt lat="51.284574" lon="-2.847031">
    <ele>2.178</ele>
    <time>2012-11-11T13:12:31Z</time>
   </trkpt>
   <trkpt lat="51.285404" lon="-2.846460">
    <ele>2.192</ele>
    <time>2012-11-11T13:12:47Z</time>
   </trkpt>
   <trkpt lat="51.286275" lon="-2.845965">
    <ele>2.297</ele>
    <time>2012-11-11T13:13:03Z</time>
   </trkpt>
   <trkpt lat="51.287120" lon="-2.845466">
    <ele>2.871</ele>
    <time>2012-11-11T13:13:19Z</time>
   </trkpt>
   <trkpt lat="51.288035" lon="-2.845142">
    <ele>1.496</ele>
    <time>2012-11-11T13:13:37Z</time>
   </trkpt>
   <trkpt lat="51.288931" lon="-2.844812">
    <ele>4.098</ele>
    <time>2012-11-11T13:13:56Z</time>
   </trkpt>
   <trkpt lat="51.289079" lon="-2.843538">
    <ele>6.468</ele>
    <time>2012-11-11T13:15:27Z</time>
   </trkpt>
   <trkpt lat="51.288805" lon="-2.842097">
    <ele>7.416</ele>
    <time>2012-11-11T13:15:46Z</time>
   </trkpt>
   <trkpt lat="51.288673" lon="-2.840615">
    <ele>6.678</ele>
    <time>2012-11-11T13:16:03Z</time>
   </trkpt>
   <trkpt lat="51.288719" lon="-2.839191">
    <ele>5.647</ele>
    <time>2012-11-11T13:16:19Z</time>
   </trkpt>
   <trkpt lat="51.288891" lon="-2.837711">
    <ele>6.069</ele>
    <time>2012-11-11T13:16:36Z</time>
   </trkpt>
   <trkpt lat="51.289198" lon="-2.836277">
    <ele>8.320</ele>
    <time>2012-11-11T13:16:53Z</time>
   </trkpt>
   <trkpt lat="51.289490" lon="-2.834885">
    <ele>9.986</ele>
    <time>2012-11-11T13:17:14Z</time>
   </trkpt>
   <trkpt lat="51.290088" lon="-2.833804">
    <ele>6.377</ele>
    <time>2012-11-11T13:17:34Z</time>
   </trkpt>
   <trkpt lat="51.290884" lon="-2.832981">
    <ele>8.970</ele>
    <time>2012-11-11T13:17:52Z</time>
   </trkpt>
   <trkpt lat="51.291673" lon="-2.832252">
    <ele>12.417</ele>
    <time>2012-11-11T13:18:11Z</time>
   </trkpt>
   <trkpt lat="51.292504" lon="-2.831656">
    <ele>20.784</ele>
    <time>2012-11-11T13:18:39Z</time>
   </trkpt>
   <trkpt lat="51.293356" lon="-2.831167">
    <ele>28.775</ele>
    <time>2012-11-11T13:19:14Z</time>
   </trkpt>
   <trkpt lat="51.294198" lon="-2.830704">
    <ele>37.193</ele>
    <time>2012-11-11T13:19:49Z</time>
   </trkpt>
   <trkpt lat="51.295057" lon="-2.830123">
    <ele>45.570</ele>
    <time>2012-11-11T13:20:24Z</time>
   </trkpt>
   <trkpt lat="51.295877" lon="-2.829449">
    <ele>52.020</ele>
    <time>2012-11-11T13:20:57Z</time>
   </trkpt>
   <trkpt lat="51.296730" lon="-2.828816">
    <ele>56.514</ele>
    <time>2012-11-11T13:21:27Z</time>
   </trkpt>
   <trkpt lat="51.297615" lon="-2.828473">
    <ele>57.573</ele>
    <time>2012-11-11T13:21:49Z</time>
   </trkpt>
   <trkpt lat="51.298499" lon="-2.828444">
    <ele>60.334</ele>
    <time>2012-11-11T13:22:09Z</time>
   </trkpt>
   <trkpt lat="51.299396" lon="-2.828724">
    <ele>64.554</ele>
    <time>2012-11-11T13:22:31Z</time>
   </trkpt>
   <trkpt lat="51.300399" lon="-2.829479">
    <ele>71.676</ele>
    <time>2012-11-11T13:23:04Z</time>
   </trkpt>
   <trkpt lat="51.300718" lon="-2.830926">
    <ele>74.462</ele>
    <time>2012-11-11T13:23:31Z</time>
   </trkpt>
   <trkpt lat="51.301069" lon="-2.832377">
    <ele>78.969</ele>
    <time>2012-11-11T13:25:02Z</time>
   </trkpt>
   <trkpt lat="51.301375" lon="-2.833789">
    <ele>83.746</ele>
    <time>2012-11-11T13:25:27Z</time>
   </trkpt>
   <trkpt lat="51.301775" lon="-2.835101">
    <ele>85.171</ele>
    <time>2012-11-11T13:25:48Z</time>
   </trkpt>
   <trkpt lat="51.302155" lon="-2.836405">
    <ele>81.476</ele>
    <time>2012-11-11T13:28:41Z</time>
   </trkpt>
   <trkpt lat="51.302565" lon="-2.837748">
    <ele>79.981</ele>
    <time>2012-11-11T13:31:25Z</time>
   </trkpt>
   <trkpt lat="51.302984" lon="-2.839089">
    <ele>87.179</ele>
    <time>2012-11-11T13:31:54Z</time>
   </trkpt>
   <trkpt lat="51.303321" lon="-2.840514">
    <ele>85.114</ele>
    <time>2012-11-11T13:32:18Z</time>
   </trkpt>
   <trkpt lat="51.304134" lon="-2.841634">
    <ele>73.056</ele>
    <time>2012-11-11T13:32:36Z</time>
   </trkpt>
   <trkpt lat="51.304489" lon="-2.843152">
    <ele>69.653</ele>
    <time>2012-11-11T13:32:49Z</time>
   </trkpt>
   <trkpt lat="51.305147" lon="-2.844130">
    <ele>56.060</ele>
    <time>2012-11-11T13:33:04Z</time>
   </trkpt>
   <trkpt lat="51.306191" lon="-2.844113">
    <ele>46.418</ele>
    <time>2012-11-11T13:33:18Z</time>
   </trkpt>
   <trkpt lat="51.307150" lon="-2.843736">
    <ele>35.791</ele>
    <time>2012-11-11T13:33:33Z</time>
   </trkpt>
   <trkpt lat="51.307824" lon="-2.842920">
    <ele>27.617</ele>
    <time>2012-11-11T13:33:45Z</time>
   </trkpt>
   <trkpt lat="51.308684" lon="-2.842058">
    <ele>20.301</ele>
    <time>2012-11-11T13:33:56Z</time>
   </trkpt>
   <trkpt lat="51.309386" lon="-2.841171">
    <ele>19.479</ele>
    <time>2012-11-11T13:34:07Z</time>
   </trkpt>
   <trkpt lat="51.310278" lon="-2.841067">
    <ele>19.363</ele>
    <time>2012-11-11T13:34:23Z</time>
   </trkpt>
   <trkpt lat="51.311196" lon="-2.840960">
    <ele>22.065</ele>
    <time>2012-11-11T13:34:39Z</time>
   </trkpt>
   <trkpt lat="51.312122" lon="-2.840726">
    <ele>20.577</ele>
    <time>2012-11-11T13:34:59Z</time>
   </trkpt>
   <trkpt lat="51.313076" lon="-2.840741">
    <ele>17.731</ele>
    <time>2012-11-11T13:35:12Z</time>
   </trkpt>
   <trkpt lat="51.313791" lon="-2.839876">
    <ele>19.417</ele>
    <time>2012-11-11T13:35:28Z</time>
   </trkpt>
   <trkpt lat="51.314027" lon="-2.838615">
    <ele>22.055</ele>
    <time>2012-11-11T13:36:39Z</time>
   </trkpt>
   <trkpt lat="51.313982" lon="-2.837140">
    <ele>23.099</ele>
    <time>2012-11-11T13:36:59Z</time>
   </trkpt>
   <trkpt lat="51.314062" lon="-2.835679">
    <ele>25.871</ele>
    <time>2012-11-11T13:37:18Z</time>
   </trkpt>
   <trkpt lat="51.314548" lon="-2.834430">
    <ele>28.773</ele>
    <time>2012-11-11T13:37:40Z</time>
   </trkpt>
   <trkpt lat="51.315347" lon="-2.833724">
    <ele>31.315</ele>
    <time>2012-11-11T13:38:03Z</time>
   </trkpt>
   <trkpt lat="51.316101" lon="-2.833479">
    <ele>29.878</ele>
    <time>2012-11-11T13:38:34Z</time>
   </trkpt>
   <trkpt lat="51.317003" lon="-2.833823">
    <ele>29.327</ele>
    <time>2012-11-11T13:38:51Z</time>
   </trkpt>
   <trkpt lat="51.317932" lon="-2.834201">
    <ele>28.339</ele>
    <time>2012-11-11T13:39:07Z</time>
   </trkpt>
   <trkpt lat="51.318847" lon="-2.834495">
    <ele>26.958</ele>
    <time>2012-11-11T13:39:21Z</time>
   </trkpt>
   <trkpt lat="51.319793" lon="-2.834703">
    <ele>25.041</ele>
    <time>2012-11-11T13:39:35Z</time>
   </trkpt>
   <trkpt lat="51.320676" lon="-2.835136">
    <ele>28.324</ele>
    <time>2012-11-11T13:39:50Z</time>
   </trkpt>
   <trkpt lat="51.321579" lon="-2.835442">
    <ele>33.499</ele>
    <time>2012-11-11T13:40:11Z</time>
   </trkpt>
   <trkpt lat="51.322470" lon="-2.835716">
    <ele>32.145</ele>
    <time>2012-11-11T13:40:28Z</time>
   </trkpt>
   <trkpt lat="51.323390" lon="-2.835907">
    <ele>30.651</ele>
    <time>2012-11-11T13:40:43Z</time>
   </trkpt>
   <trkpt lat="51.324364" lon="-2.835853">
    <ele>26.092</ele>
    <time>2012-11-11T13:40:57Z</time>
   </trkpt>
   <trkpt lat="51.325219" lon="-2.835284">
    <ele>24.631</ele>
    <time>2012-11-11T13:41:10Z</time>
   </trkpt>
   <trkpt lat="51.326094" lon="-2.834707">
    <ele>32.759</ele>
    <time>2012-11-11T13:41:28Z</time>
   </trkpt>
   <trkpt lat="51.326985" lon="-2.834445">
    <ele>37.684</ele>
    <time>2012-11-11T13:41:54Z</time>
   </trkpt>
   <trkpt lat="51.327912" lon="-2.834259">
    <ele>38.663</ele>
    <time>2012-11-11T13:42:16Z</time>
   </trkpt>
   <trkpt lat="51.328813" lon="-2.834144">
    <ele>35.775</ele>
    <time>2012-11-11T13:42:33Z</time>
   </trkpt>
   <trkpt lat="51.329715" lon="-2.833919">
    <ele>27.961</ele>
    <time>2012-11-11T13:42:45Z</time>
   </trkpt>
   <trkpt lat="51.330592" lon="-2.833329">
    <ele>20.343</ele>
    <time>2012-11-11T13:42:55Z</time>
   </trkpt>
   <trkpt lat="51.331392" lon="-2.832458">
    <ele>18.373</ele>
    <time>2012-11-11T13:43:07Z</time>
   </trkpt>
   <trkpt lat="51.331967" lon="-2.831286">
    <ele>15.380</ele>
    <time>2012-11-11T13:43:19Z</time>
   </trkpt>
   <trkpt lat="51.332390" lon="-2.830169">
    <ele>17.235</ele>
    <time>2012-11-11T13:44:05Z</time>
   </trkpt>
   <trkpt lat="51.332609" lon="-2.828696">
    <ele>17.864</ele>
    <time>2012-11-11T13:44:25Z</time>
   </trkpt>
   <trkpt lat="51.332879" lon="-2.827313">
    <ele>16.105</ele>
    <time>2012-11-11T13:44:40Z</time>
   </trkpt>
   <trkpt lat="51.333183" lon="-2.825900">
    <ele>14.656</ele>
    <time>2012-11-11T13:44:55Z</time>
   </trkpt>
   <trkpt lat="51.333382" lon="-2.824488">
    <ele>14.629</ele>
    <time>2012-11-11T13:45:09Z</time>
   </trkpt>
   <trkpt lat="51.333480" lon="-2.823048">
    <ele>14.546</ele>
    <time>2012-11-11T13:45:23Z</time>
   </trkpt>
   <trkpt lat="51.333524" lon="-2.821598">
    <ele>15.699</ele>
    <time>2012-11-11T13:45:37Z</time>
   </trkpt>
   <trkpt lat="51.333647" lon="-2.820182">
    <ele>16.659</ele>
    <time>2012-11-11T13:45:51Z</time>
   </trkpt>
   <trkpt lat="51.333699" lon="-2.818709">
    <ele>18.773</ele>
    <time>2012-11-11T13:46:07Z</time>
   </trkpt>
   <trkpt lat="51.333688" lon="-2.817267">
    <ele>22.745</ele>
    <time>2012-11-11T13:46:25Z</time>
   </trkpt>
   <trkpt lat="51.333571" lon="-2.815776">
    <ele>24.339</ele>
    <time>2012-11-11T13:46:44Z</time>
   </trkpt>
   <trkpt lat="51.333381" lon="-2.814309">
    <ele>25.049</ele>
    <time>2012-11-11T13:47:00Z</time>
   </trkpt>
   <trkpt lat="51.333033" lon="-2.812968">
    <ele>25.717</ele>
    <time>2012-11-11T13:47:15Z</time>
   </trkpt>
   <trkpt lat="51.332766" lon="-2.811589">
    <ele>26.588</ele>
    <time>2012-11-11T13:47:30Z</time>
   </trkpt>
   <trkpt lat="51.332860" lon="-2.810162">
    <ele>27.643</ele>
    <time>2012-11-11T13:47:45Z</time>
   </trkpt>
   <trkpt lat="51.333017" lon="-2.808723">
    <ele>30.057</ele>
    <time>2012-11-11T13:48:03Z</time>
   </trkpt>
   <trkpt lat="51.333782" lon="-2.808272">
    <ele>32.061</ele>
    <time>2012-11-11T13:48:23Z</time>
   </trkpt>
   <trkpt lat="51.334707" lon="-2.808133">
    <ele>33.044</ele>
    <time>2012-11-11T13:48:41Z</time>
   </trkpt>
   <trkpt lat="51.335640" lon="-2.808003">
    <ele>31.871</ele>
    <time>2012-11-11T13:48:59Z</time>
   </trkpt>
   <trkpt lat="51.336031" lon="-2.809004">
    <ele>30.837</ele>
    <time>2012-11-11T13:49:22Z</time>
   </trkpt>
   <trkpt lat="51.336922" lon="-2.808706">
    <ele>29.757</ele>
    <time>2012-11-11T13:49:40Z</time>
   </trkpt>
   <trkpt lat="51.337837" lon="-2.808339">
    <ele>28.954</ele>
    <time>2012-11-11T13:49:56Z</time>
   </trkpt>
   <trkpt lat="51.338771" lon="-2.807942">
    <ele>25.209</ele>
    <time>2012-11-11T13:50:11Z</time>
   </trkpt>
   <trkpt lat="51.339676" lon="-2.807630">
    <ele>22.816</ele>
    <time>2012-11-11T13:50:27Z</time>
   </trkpt>
   <trkpt lat="51.340689" lon="-2.807181">
    <ele>18.973</ele>
    <time>2012-11-11T13:50:41Z</time>
   </trkpt>
   <trkpt lat="51.341327" lon="-2.806320">
    <ele>20.656</ele>
    <time>2012-11-11T13:50:58Z</time>
   </trkpt>
   <trkpt lat="51.342059" lon="-2.805423">
    <ele>28.469</ele>
    <time>2012-11-11T13:51:22Z</time>
   </trkpt>
   <trkpt lat="51.342668" lon="-2.804337">
    <ele>36.528</ele>
    <time>2012-11-11T13:51:54Z</time>
   </trkpt>
   <trkpt lat="51.343210" lon="-2.803163">
    <ele>29.557</ele>
    <time>2012-11-11T13:52:14Z</time>
   </trkpt>
   <trkpt lat="51.344307" lon="-2.802942">
    <ele>19.637</ele>
    <time>2012-11-11T13:52:31Z</time>
   </trkpt>
   <trkpt lat="51.345414" lon="-2.802899">
    <ele>18.148</ele>
    <time>2012-11-11T13:52:44Z</time>
   </trkpt>
   <trkpt lat="51.346371" lon="-2.803128">
    <ele>14.886</ele>
    <time>2012-11-11T13:52:57Z</time>
   </trkpt>
   <trkpt lat="51.347335" lon="-2.803090">
    <ele>10.891</ele>
    <time>2012-11-11T13:53:10Z</time>
   </trkpt>
   <trkpt lat="51.348291" lon="-2.802945">
    <ele>8.104</ele>
    <time>2012-11-11T13:53:24Z</time>
   </trkpt>
   <trkpt lat="51.349178" lon="-2.802530">
    <ele>5.923</ele>
    <time>2012-11-11T13:53:37Z</time>
   </trkpt>
   <trkpt lat="51.350053" lon="-2.801865">
    <ele>3.994</ele>
    <time>2012-11-11T13:53:50Z</time>
   </trkpt>
   <trkpt lat="51.350879" lon="-2.801226">
    <ele>6.388</ele>
    <time>2012-11-11T13:54:04Z</time>
   </trkpt>
   <trkpt lat="51.351722" lon="-2.800559">
    <ele>8.901</ele>
    <time>2012-11-11T13:54:21Z</time>
   </trkpt>
   <trkpt lat="51.352577" lon="-2.800073">
    <ele>10.725</ele>
    <time>2012-11-11T13:54:39Z</time>
   </trkpt>
   <trkpt lat="51.353506" lon="-2.800280">
    <ele>12.989</ele>
    <time>2012-11-11T13:54:57Z</time>
   </trkpt>
   <trkpt lat="51.354401" lon="-2.800521">
    <ele>13.379</ele>
    <time>2012-11-11T13:55:13Z</time>
   </trkpt>
   <trkpt lat="51.355346" lon="-2.800642">
    <ele>10.737</ele>
    <time>2012-11-11T13:55:29Z</time>
   </trkpt>
   <trkpt lat="51.356254" lon="-2.801177">
    <ele>2.478</ele>
    <time>2012-11-11T13:55:41Z</time>
   </trkpt>
   <trkpt lat="51.357001" lon="-2.802037">
    <ele>0.668</ele>
    <time>2012-11-11T13:56:04Z</time>
   </trkpt>
   <trkpt lat="51.357802" lon="-2.802779">
    <ele>-0.373</ele>
    <time>2012-11-11T13:56:19Z</time>
   </trkpt>
   <trkpt lat="51.358708" lon="-2.803180">
    <ele>1.152</ele>
    <time>2012-11-11T13:56:35Z</time>
   </trkpt>
   <trkpt lat="51.359621" lon="-2.803561">
    <ele>4.188</ele>
    <time>2012-11-11T13:56:53Z</time>
   </trkpt>
   <trkpt lat="51.360503" lon="-2.803902">
    <ele>3.954</ele>
    <time>2012-11-11T13:57:09Z</time>
   </trkpt>
   <trkpt lat="51.361389" lon="-2.804265">
    <ele>2.740</ele>
    <time>2012-11-11T13:57:23Z</time>
   </trkpt>
   <trkpt lat="51.362308" lon="-2.804663">
    <ele>5.568</ele>
    <time>2012-11-11T13:57:40Z</time>
   </trkpt>
   <trkpt lat="51.363220" lon="-2.805071">
    <ele>6.639</ele>
    <time>2012-11-11T13:57:57Z</time>
   </trkpt>
   <trkpt lat="51.364071" lon="-2.805649">
    <ele>5.231</ele>
    <time>2012-11-11T13:58:11Z</time>
   </trkpt>
   <trkpt lat="51.364895" lon="-2.806399">
    <ele>4.439</ele>
    <time>2012-11-11T13:58:25Z</time>
   </trkpt>
   <trkpt lat="51.365754" lon="-2.806819">
    <ele>3.288</ele>
    <time>2012-11-11T13:58:38Z</time>
   </trkpt>
   <trkpt lat="51.366691" lon="-2.806901">
    <ele>1.944</ele>
    <time>2012-11-11T13:58:52Z</time>
   </trkpt>
   <trkpt lat="51.367605" lon="-2.806980">
    <ele>2.039</ele>
    <time>2012-11-11T13:59:06Z</time>
   </trkpt>
   <trkpt lat="51.368513" lon="-2.807096">
    <ele>2.100</ele>
    <time>2012-11-11T13:59:21Z</time>
   </trkpt>
   <trkpt lat="51.369253" lon="-2.807791">
    <ele>0.360</ele>
    <time>2012-11-11T13:59:36Z</time>
   </trkpt>
   <trkpt lat="51.369924" lon="-2.808808">
    <ele>0.843</ele>
    <time>2012-11-11T13:59:51Z</time>
   </trkpt>
   <trkpt lat="51.370651" lon="-2.809656">
    <ele>0.649</ele>
    <time>2012-11-11T14:00:14Z</time>
   </trkpt>
   <trkpt lat="51.371482" lon="-2.809226">
    <ele>2.258</ele>
    <time>2012-11-11T14:00:32Z</time>
   </trkpt>
   <trkpt lat="51.372366" lon="-2.808863">
    <ele>1.410</ele>
    <time>2012-11-11T14:00:47Z</time>
   </trkpt>
   <trkpt lat="51.373179" lon="-2.809308">
    <ele>1.883</ele>
    <time>2012-11-11T14:01:03Z</time>
   </trkpt>
   <trkpt lat="51.373876" lon="-2.810231">
    <ele>0.984</ele>
    <time>2012-11-11T14:01:17Z</time>
   </trkpt>
   <trkpt lat="51.374740" lon="-2.810603">
    <ele>1.539</ele>
    <time>2012-11-11T14:01:31Z</time>
   </trkpt>
   <trkpt lat="51.375636" lon="-2.810034">
    <ele>2.072</ele>
    <time>2012-11-11T14:01:46Z</time>
   </trkpt>
   <trkpt lat="51.376555" lon="-2.810217">
    <ele>2.132</ele>
    <time>2012-11-11T14:02:00Z</time>
   </trkpt>
   <trkpt lat="51.377446" lon="-2.810315">
    <ele>3.811</ele>
    <time>2012-11-11T14:02:15Z</time>
   </trkpt>
   <trkpt lat="51.378380" lon="-2.810257">
    <ele>8.012</ele>
    <time>2012-11-11T14:02:34Z</time>
   </trkpt>
   <trkpt lat="51.379285" lon="-2.810160">
    <ele>12.475</ele>
    <time>2012-11-11T14:02:57Z</time>
   </trkpt>
   <trkpt lat="51.380151" lon="-2.810579">
    <ele>17.262</ele>
    <time>2012-11-11T14:03:21Z</time>
   </trkpt>
   <trkpt lat="51.380999" lon="-2.811158">
    <ele>19.290</ele>
    <time>2012-11-11T14:03:42Z</time>
   </trkpt>
   <trkpt lat="51.381862" lon="-2.811575">
    <ele>17.823</ele>
    <time>2012-11-11T14:04:01Z</time>
   </trkpt>
   <trkpt lat="51.382808" lon="-2.811813">
    <ele>13.172</ele>
    <time>2012-11-11T14:04:15Z</time>
   </trkpt>
   <trkpt lat="51.383609" lon="-2.812240">
    <ele>13.146</ele>
    <time>2012-11-11T14:04:29Z</time>
   </trkpt>
   <trkpt lat="51.384133" lon="-2.813524">
    <ele>10.177</ele>
    <time>2012-11-11T14:04:45Z</time>
   </trkpt>
   <trkpt lat="51.384706" lon="-2.814688">
    <ele>4.905</ele>
    <time>2012-11-11T14:04:57Z</time>
   </trkpt>
   <trkpt lat="51.385099" lon="-2.816054">
    <ele>3.344</ele>
    <time>2012-11-11T14:05:11Z</time>
   </trkpt>
   <trkpt lat="51.385640" lon="-2.817241">
    <ele>2.768</ele>
    <time>2012-11-11T14:05:25Z</time>
   </trkpt>
   <trkpt lat="51.386232" lon="-2.818327">
    <ele>2.867</ele>
    <time>2012-11-11T14:05:40Z</time>
   </trkpt>
   <trkpt lat="51.386690" lon="-2.819611">
    <ele>3.530</ele>
    <time>2012-11-11T14:05:56Z</time>
   </trkpt>
   <trkpt lat="51.387170" lon="-2.820857">
    <ele>4.494</ele>
    <time>2012-11-11T14:06:13Z</time>
   </trkpt>
   <trkpt lat="51.387802" lon="-2.821941">
    <ele>2.327</ele>
    <time>2012-11-11T14:06:29Z</time>
   </trkpt>
   <trkpt lat="51.388408" lon="-2.823072">
    <ele>2.146</ele>
    <time>2012-11-11T14:06:43Z</time>
   </trkpt>
   <trkpt lat="51.389051" lon="-2.824177">
    <ele>3.583</ele>
    <time>2012-11-11T14:06:59Z</time>
   </trkpt>
   <trkpt lat="51.389898" lon="-2.824808">
    <ele>3.310</ele>
    <time>2012-11-11T14:07:15Z</time>
   </trkpt>
   <trkpt lat="51.390822" lon="-2.825465">
    <ele>3.354</ele>
    <time>2012-11-11T14:07:31Z</time>
   </trkpt>
   <trkpt lat="51.391669" lon="-2.826106">
    <ele>5.512</ele>
    <time>2012-11-11T14:07:48Z</time>
   </trkpt>
   <trkpt lat="51.392449" lon="-2.826922">
    <ele>2.499</ele>
    <time>2012-11-11T14:08:05Z</time>
   </trkpt>
   <trkpt lat="51.393044" lon="-2.825815">
    <ele>3.267</ele>
    <time>2012-11-11T14:09:23Z</time>
   </trkpt>
   <trkpt lat="51.393803" lon="-2.824954">
    <ele>0.173</ele>
    <time>2012-11-11T14:09:40Z</time>
   </trkpt>
   <trkpt lat="51.394752" lon="-2.824889">
    <ele>-2.842</ele>
    <time>2012-11-11T14:09:54Z</time>
   </trkpt>
   <trkpt lat="51.395686" lon="-2.824771">
    <ele>-4.174</ele>
    <time>2012-11-11T14:10:07Z</time>
   </trkpt>
   <trkpt lat="51.396585" lon="-2.825040">
    <ele>-3.984</ele>
    <time>2012-11-11T14:10:20Z</time>
   </trkpt>
   <trkpt lat="51.397529" lon="-2.825311">
    <ele>-4.455</ele>
    <time>2012-11-11T14:10:34Z</time>
   </trkpt>
   <trkpt lat="51.398461" lon="-2.825591">
    <ele>-4.471</ele>
    <time>2012-11-11T14:10:48Z</time>
   </trkpt>
   <trkpt lat="51.399375" lon="-2.825850">
    <ele>-4.278</ele>
    <time>2012-11-11T14:11:02Z</time>
   </trkpt>
   <trkpt lat="51.400311" lon="-2.826161">
    <ele>-3.647</ele>
    <time>2012-11-11T14:11:17Z</time>
   </trkpt>
   <trkpt lat="51.401183" lon="-2.826827">
    <ele>-2.782</ele>
    <time>2012-11-11T14:11:33Z</time>
   </trkpt>
   <trkpt lat="51.402039" lon="-2.827465">
    <ele>-3.587</ele>
    <time>2012-11-11T14:11:48Z</time>
   </trkpt>
   <trkpt lat="51.402884" lon="-2.828038">
    <ele>-2.749</ele>
    <time>2012-11-11T14:12:03Z</time>
   </trkpt>
   <trkpt lat="51.403823" lon="-2.828093">
    <ele>-2.877</ele>
    <time>2012-11-11T14:12:18Z</time>
   </trkpt>
   <trkpt lat="51.404740" lon="-2.828121">
    <ele>-2.780</ele>
    <time>2012-11-11T14:12:33Z</time>
   </trkpt>
   <trkpt lat="51.405676" lon="-2.828148">
    <ele>-2.779</ele>
    <time>2012-11-11T14:12:48Z</time>
   </trkpt>
   <trkpt lat="51.406611" lon="-2.828200">
    <ele>-2.262</ele>
    <time>2012-11-11T14:13:03Z</time>
   </trkpt>
   <trkpt lat="51.407514" lon="-2.828225">
    <ele>-3.018</ele>
    <time>2012-11-11T14:13:17Z</time>
   </trkpt>
   <trkpt lat="51.408412" lon="-2.828264">
    <ele>-2.682</ele>
    <time>2012-11-11T14:13:32Z</time>
   </trkpt>
   <trkpt lat="51.409376" lon="-2.828306">
    <ele>-2.418</ele>
    <time>2012-11-11T14:13:47Z</time>
   </trkpt>
   <trkpt lat="51.410341" lon="-2.828351">
    <ele>-2.458</ele>
    <time>2012-11-11T14:14:02Z</time>
   </trkpt>
   <trkpt lat="51.411277" lon="-2.828389">
    <ele>-3.068</ele>
    <time>2012-11-11T14:14:17Z</time>
   </trkpt>
   <trkpt lat="51.412183" lon="-2.828423">
    <ele>-3.027</ele>
    <time>2012-11-11T14:14:31Z</time>
   </trkpt>
   <trkpt lat="51.413094" lon="-2.828450">
    <ele>-2.957</ele>
    <time>2012-11-11T14:14:45Z</time>
   </trkpt>
   <trkpt lat="51.414004" lon="-2.828495">
    <ele>-2.704</ele>
    <time>2012-11-11T14:14:59Z</time>
   </trkpt>
   <trkpt lat="51.414955" lon="-2.828528">
    <ele>-4.010</ele>
    <time>2012-11-11T14:15:13Z</time>
   </trkpt>
   <trkpt lat="51.415850" lon="-2.828571">
    <ele>-3.868</ele>
    <time>2012-11-11T14:15:27Z</time>
   </trkpt>
   <trkpt lat="51.416788" lon="-2.828588">
    <ele>-3.720</ele>
    <time>2012-11-11T14:15:42Z</time>
   </trkpt>
   <trkpt lat="51.417706" lon="-2.828632">
    <ele>-3.779</ele>
    <time>2012-11-11T14:15:58Z</time>
   </trkpt>
   <trkpt lat="51.418605" lon="-2.828361">
    <ele>-3.596</ele>
    <time>2012-11-11T14:16:14Z</time>
   </trkpt>
   <trkpt lat="51.419509" lon="-2.827897">
    <ele>-3.915</ele>
    <time>2012-11-11T14:16:31Z</time>
   </trkpt>
   <trkpt lat="51.420391" lon="-2.827458">
    <ele>-3.779</ele>
    <time>2012-11-11T14:16:46Z</time>
   </trkpt>
   <trkpt lat="51.421322" lon="-2.826998">
    <ele>-4.100</ele>
    <time>2012-11-11T14:17:03Z</time>
   </trkpt>
   <trkpt lat="51.422209" lon="-2.826564">
    <ele>-4.600</ele>
    <time>2012-11-11T14:17:18Z</time>
   </trkpt>
   <trkpt lat="51.423084" lon="-2.826142">
    <ele>-4.171</ele>
    <time>2012-11-11T14:17:34Z</time>
   </trkpt>
   <trkpt lat="51.423625" lon="-2.827124">
    <ele>-4.576</ele>
    <time>2012-11-11T14:17:53Z</time>
   </trkpt>
   <trkpt lat="51.423693" lon="-2.828624">
    <ele>-5.001</ele>
    <time>2012-11-11T14:18:10Z</time>
   </trkpt>
   <trkpt lat="51.423849" lon="-2.830085">
    <ele>-5.777</ele>
    <time>2012-11-11T14:18:25Z</time>
   </trkpt>
   <trkpt lat="51.424059" lon="-2.831560">
    <ele>-5.928</ele>
    <time>2012-11-11T14:18:41Z</time>
   </trkpt>
   <trkpt lat="51.424787" lon="-2.831987">
    <ele>-4.858</ele>
    <time>2012-11-11T14:18:59Z</time>
   </trkpt>
   <trkpt lat="51.425734" lon="-2.832048">
    <ele>-5.902</ele>
    <time>2012-11-11T14:19:15Z</time>
   </trkpt>
   <trkpt lat="51.426652" lon="-2.832101">
    <ele>-5.961</ele>
    <time>2012-11-11T14:19:30Z</time>
   </trkpt>
   <trkpt lat="51.427592" lon="-2.832178">
    <ele>-5.741</ele>
    <time>2012-11-11T14:19:45Z</time>
   </trkpt>
   <trkpt lat="51.428543" lon="-2.832249">
    <ele>-5.164</ele>
    <time>2012-11-11T14:20:01Z</time>
   </trkpt>
   <trkpt lat="51.429499" lon="-2.832324">
    <ele>-5.961</ele>
    <time>2012-11-11T14:20:17Z</time>
   </trkpt>
   <trkpt lat="51.430442" lon="-2.832394">
    <ele>-6.517</ele>
    <time>2012-11-11T14:20:32Z</time>
   </trkpt>
   <trkpt lat="51.431382" lon="-2.832476">
    <ele>-6.825</ele>
    <time>2012-11-11T14:20:47Z</time>
   </trkpt>
   <trkpt lat="51.432299" lon="-2.832540">
    <ele>-6.233</ele>
    <time>2012-11-11T14:21:02Z</time>
   </trkpt>
   <trkpt lat="51.433226" lon="-2.832630">
    <ele>-6.595</ele>
    <time>2012-11-11T14:21:17Z</time>
   </trkpt>
   <trkpt lat="51.434132" lon="-2.832698">
    <ele>-6.074</ele>
    <time>2012-11-11T14:21:33Z</time>
   </trkpt>
   <trkpt lat="51.434469" lon="-2.832683">
    <ele>-5.740</ele>
    <time>2012-11-11T14:22:28Z</time>
   </trkpt>
   <trkpt lat="51.433510" lon="-2.832591">
    <ele>-5.659</ele>
    <time>2012-11-11T14:22:47Z</time>
   </trkpt>
   <trkpt lat="51.432559" lon="-2.832497">
    <ele>-6.173</ele>
    <time>2012-11-11T14:23:05Z</time>
   </trkpt>
   <trkpt lat="51.431654" lon="-2.832428">
    <ele>-6.852</ele>
    <time>2012-11-11T14:23:21Z</time>
   </trkpt>
   <trkpt lat="51.430714" lon="-2.832354">
    <ele>-7.069</ele>
    <time>2012-11-11T14:23:38Z</time>
   </trkpt>
   <trkpt lat="51.429798" lon="-2.832293">
    <ele>-6.709</ele>
    <time>2012-11-11T14:23:54Z</time>
   </trkpt>
   <trkpt lat="51.428843" lon="-2.832221">
    <ele>-6.703</ele>
    <time>2012-11-11T14:24:10Z</time>
   </trkpt>
   <trkpt lat="51.427892" lon="-2.832151">
    <ele>-6.510</ele>
    <time>2012-11-11T14:24:26Z</time>
   </trkpt>
   <trkpt lat="51.426953" lon="-2.832080">
    <ele>-6.782</ele>
    <time>2012-11-11T14:24:42Z</time>
   </trkpt>
   <trkpt lat="51.426001" lon="-2.832027">
    <ele>-6.644</ele>
    <time>2012-11-11T14:24:58Z</time>
   </trkpt>
   <trkpt lat="51.425100" lon="-2.831972">
    <ele>-6.652</ele>
    <time>2012-11-11T14:25:14Z</time>
   </trkpt>
   <trkpt lat="51.424183" lon="-2.831916">
    <ele>-5.767</ele>
    <time>2012-11-11T14:25:32Z</time>
   </trkpt>
   <trkpt lat="51.423930" lon="-2.830522">
    <ele>-6.208</ele>
    <time>2012-11-11T14:25:57Z</time>
   </trkpt>
   <trkpt lat="51.423743" lon="-2.829025">
    <ele>-7.077</ele>
    <time>2012-11-11T14:26:14Z</time>
   </trkpt>
   <trkpt lat="51.423673" lon="-2.827562">
    <ele>-7.122</ele>
    <time>2012-11-11T14:26:29Z</time>
   </trkpt>
   <trkpt lat="51.423377" lon="-2.826218">
    <ele>-6.787</ele>
    <time>2012-11-11T14:26:46Z</time>
   </trkpt>
   <trkpt lat="51.422504" lon="-2.826398">
    <ele>-7.240</ele>
    <time>2012-11-11T14:27:03Z</time>
   </trkpt>
   <trkpt lat="51.421598" lon="-2.826836">
    <ele>-6.986</ele>
    <time>2012-11-11T14:27:18Z</time>
   </trkpt>
   <trkpt lat="51.420725" lon="-2.827259">
    <ele>-7.177</ele>
    <time>2012-11-11T14:27:33Z</time>
   </trkpt>
   <trkpt lat="51.419816" lon="-2.827725">
    <ele>-7.780</ele>
    <time>2012-11-11T14:27:48Z</time>
   </trkpt>
   <trkpt lat="51.418937" lon="-2.828160">
    <ele>-7.916</ele>
    <time>2012-11-11T14:28:04Z</time>
   </trkpt>
   <trkpt lat="51.418029" lon="-2.828597">
    <ele>-8.045</ele>
    <time>2012-11-11T14:28:20Z</time>
   </trkpt>
   <trkpt lat="51.417072" lon="-2.828569">
    <ele>-8.518</ele>
    <time>2012-11-11T14:28:35Z</time>
   </trkpt>
   <trkpt lat="51.416137" lon="-2.828531">
    <ele>-8.524</ele>
    <time>2012-11-11T14:28:49Z</time>
   </trkpt>
   <trkpt lat="51.415234" lon="-2.828496">
    <ele>-8.278</ele>
    <time>2012-11-11T14:29:02Z</time>
   </trkpt>
   <trkpt lat="51.414326" lon="-2.828469">
    <ele>-8.613</ele>
    <time>2012-11-11T14:29:15Z</time>
   </trkpt>
   <trkpt lat="51.413403" lon="-2.828415">
    <ele>-8.701</ele>
    <time>2012-11-11T14:29:29Z</time>
   </trkpt>
   <trkpt lat="51.412457" lon="-2.828376">
    <ele>-8.246</ele>
    <time>2012-11-11T14:29:44Z</time>
   </trkpt>
   <trkpt lat="51.411555" lon="-2.828356">
    <ele>-8.570</ele>
    <time>2012-11-11T14:29:58Z</time>
   </trkpt>
   <trkpt lat="51.410643" lon="-2.828324">
    <ele>-9.305</ele>
    <time>2012-11-11T14:30:12Z</time>
   </trkpt>
   <trkpt lat="51.409692" lon="-2.828280">
    <ele>-8.808</ele>
    <time>2012-11-11T14:30:26Z</time>
   </trkpt>
   <trkpt lat="51.408757" lon="-2.828242">
    <ele>-8.954</ele>
    <time>2012-11-11T14:30:40Z</time>
   </trkpt>
   <trkpt lat="51.407844" lon="-2.828204">
    <ele>-9.737</ele>
    <time>2012-11-11T14:30:53Z</time>
   </trkpt>
   <trkpt lat="51.406912" lon="-2.828171">
    <ele>-9.718</ele>
    <time>2012-11-11T14:31:07Z</time>
   </trkpt>
   <trkpt lat="51.405942" lon="-2.828122">
    <ele>-10.094</ele>
    <time>2012-11-11T14:31:21Z</time>
   </trkpt>
   <trkpt lat="51.404993" lon="-2.828082">
    <ele>-10.119</ele>
    <time>2012-11-11T14:31:35Z</time>
   </trkpt>
   <trkpt lat="51.404086" lon="-2.828038">
    <ele>-9.784</ele>
    <time>2012-11-11T14:31:49Z</time>
   </trkpt>
   <trkpt lat="51.403175" lon="-2.828040">
    <ele>-9.849</ele>
    <time>2012-11-11T14:32:04Z</time>
   </trkpt>
   <trkpt lat="51.402492" lon="-2.828695">
    <ele>-11.371</ele>
    <time>2012-11-11T14:32:21Z</time>
   </trkpt>
   <trkpt lat="51.401921" lon="-2.829881">
    <ele>-10.256</ele>
    <time>2012-11-11T14:32:38Z</time>
   </trkpt>
   <trkpt lat="51.401452" lon="-2.831121">
    <ele>-10.287</ele>
    <time>2012-11-11T14:32:54Z</time>
   </trkpt>
   <trkpt lat="51.401208" lon="-2.832579">
    <ele>-9.363</ele>
    <time>2012-11-11T14:33:11Z</time>
   </trkpt>
   <trkpt lat="51.401230" lon="-2.834044">
    <ele>-9.130</ele>
    <time>2012-11-11T14:33:27Z</time>
   </trkpt>
   <trkpt lat="51.401261" lon="-2.835505">
    <ele>-10.029</ele>
    <time>2012-11-11T14:33:42Z</time>
   </trkpt>
   <trkpt lat="51.401107" lon="-2.836938">
    <ele>-9.592</ele>
    <time>2012-11-11T14:33:58Z</time>
   </trkpt>
   <trkpt lat="51.400384" lon="-2.837780">
    <ele>-9.795</ele>
    <time>2012-11-11T14:34:15Z</time>
   </trkpt>
   <trkpt lat="51.399953" lon="-2.838460">
    <ele>-8.743</ele>
    <time>2012-11-11T14:34:49Z</time>
   </trkpt>
   <trkpt lat="51.400376" lon="-2.839781">
    <ele>-9.959</ele>
    <time>2012-11-11T14:35:07Z</time>
   </trkpt>
   <trkpt lat="51.400833" lon="-2.841101">
    <ele>-8.446</ele>
    <time>2012-11-11T14:35:25Z</time>
   </trkpt>
   <trkpt lat="51.401119" lon="-2.842388">
    <ele>-4.267</ele>
    <time>2012-11-11T14:35:47Z</time>
   </trkpt>
   <trkpt lat="51.400511" lon="-2.842919">
    <ele>-6.332</ele>
    <time>2012-11-11T14:36:13Z</time>
   </trkpt>
   <trkpt lat="51.400458" lon="-2.843238">
    <ele>-9.243</ele>
    <time>2012-11-11T14:36:42Z</time>
   </trkpt>
  </trkseg>
 </trk>
</gpx>
